<?xml version="1.0" encoding="UTF-8" standalone="no" ?>
<gpx xmlns="http://www.topografix.com/GPX/1/1" xmlns:xsi="http://www.w3.org/2001/XMLSchema-instance" xsi:schemaLocation="http://www.topografix.com/GPX/1/1 http://www.topografix.com/GPX/1/1/gpx.xsd" version="1.1" creator="VisuGPX - https://www.visugpx.com">
  <metadata>
    <name>Boucle Cotignac</name>
  </metadata>
  <trk>
    <name><![CDATA[14/10/2017 09:55:32  boucle Cotignac]]></name>
    <extensions>
      <line xmlns="http://www.topografix.com/GPX/gpx_style/0/2">
        <color>0000FF</color>
        <width>4</width>
      </line>
    </extensions>
    <trkseg>
      <trkpt lat="43.53486" lon="6.14017">
        <ele>354.39999389648</ele>
        <time>2017-10-14T07:55:32Z</time>
      </trkpt>
      <trkpt lat="43.53486" lon="6.14017">
        <ele>354.39999389648</ele>
        <time>2017-10-14T07:55:33Z</time>
      </trkpt>
      <trkpt lat="43.53486" lon="6.14016">
        <ele>354.20001220703</ele>
        <time>2017-10-14T07:55:57Z</time>
      </trkpt>
      <trkpt lat="43.53489" lon="6.14018">
        <ele>353.60000610352</ele>
        <time>2017-10-14T07:56:36Z</time>
      </trkpt>
      <trkpt lat="43.53491" lon="6.1402">
        <ele>353.60000610352</ele>
        <time>2017-10-14T07:57:21Z</time>
      </trkpt>
      <trkpt lat="43.53491" lon="6.14021">
        <ele>353.60000610352</ele>
        <time>2017-10-14T07:58:07Z</time>
      </trkpt>
      <trkpt lat="43.5349" lon="6.14021">
        <ele>353.60000610352</ele>
        <time>2017-10-14T07:59:42Z</time>
      </trkpt>
      <trkpt lat="43.53489" lon="6.1402">
        <ele>353.60000610352</ele>
        <time>2017-10-14T08:00:39Z</time>
      </trkpt>
      <trkpt lat="43.53492" lon="6.14022">
        <ele>353.20001220703</ele>
        <time>2017-10-14T08:01:39Z</time>
      </trkpt>
      <trkpt lat="43.53489" lon="6.14022">
        <ele>353</ele>
        <time>2017-10-14T08:02:27Z</time>
      </trkpt>
      <trkpt lat="43.53487" lon="6.14021">
        <ele>353</ele>
        <time>2017-10-14T08:02:59Z</time>
      </trkpt>
      <trkpt lat="43.53492" lon="6.14022">
        <ele>352.79998779297</ele>
        <time>2017-10-14T08:04:03Z</time>
      </trkpt>
      <trkpt lat="43.5349" lon="6.14015">
        <ele>353</ele>
        <time>2017-10-14T08:04:31Z</time>
      </trkpt>
      <trkpt lat="43.53489" lon="6.1402">
        <ele>353</ele>
        <time>2017-10-14T08:04:59Z</time>
      </trkpt>
      <trkpt lat="43.53488" lon="6.1402">
        <ele>353</ele>
        <time>2017-10-14T08:05:39Z</time>
      </trkpt>
      <trkpt lat="43.53489" lon="6.14014">
        <ele>352.79998779297</ele>
        <time>2017-10-14T08:06:02Z</time>
      </trkpt>
      <trkpt lat="43.5349" lon="6.14017">
        <ele>352.79998779297</ele>
        <time>2017-10-14T08:06:17Z</time>
      </trkpt>
      <trkpt lat="43.53489" lon="6.14015">
        <ele>352.79998779297</ele>
        <time>2017-10-14T08:06:58Z</time>
      </trkpt>
      <trkpt lat="43.53488" lon="6.14015">
        <ele>352.60000610352</ele>
        <time>2017-10-14T08:08:14Z</time>
      </trkpt>
      <trkpt lat="43.53485" lon="6.14004">
        <ele>352.79998779297</ele>
        <time>2017-10-14T08:09:12Z</time>
      </trkpt>
      <trkpt lat="43.53489" lon="6.13986">
        <ele>353.20001220703</ele>
        <time>2017-10-14T08:09:28Z</time>
      </trkpt>
      <trkpt lat="43.53493" lon="6.13967">
        <ele>353.39999389648</ele>
        <time>2017-10-14T08:09:44Z</time>
      </trkpt>
      <trkpt lat="43.53497" lon="6.13951">
        <ele>354</ele>
        <time>2017-10-14T08:10:17Z</time>
      </trkpt>
      <trkpt lat="43.53503" lon="6.13946">
        <ele>355.20001220703</ele>
        <time>2017-10-14T08:11:02Z</time>
      </trkpt>
      <trkpt lat="43.53512" lon="6.13938">
        <ele>358.20001220703</ele>
        <time>2017-10-14T08:11:30Z</time>
      </trkpt>
      <trkpt lat="43.53512" lon="6.13928">
        <ele>361.39999389648</ele>
        <time>2017-10-14T08:11:51Z</time>
      </trkpt>
      <trkpt lat="43.53519" lon="6.13923">
        <ele>361.60000610352</ele>
        <time>2017-10-14T08:12:12Z</time>
      </trkpt>
      <trkpt lat="43.53523" lon="6.13925">
        <ele>361.20001220703</ele>
        <time>2017-10-14T08:12:37Z</time>
      </trkpt>
      <trkpt lat="43.53524" lon="6.13926">
        <ele>361.20001220703</ele>
        <time>2017-10-14T08:13:34Z</time>
      </trkpt>
      <trkpt lat="43.53524" lon="6.13928">
        <ele>361.39999389648</ele>
        <time>2017-10-14T08:14:23Z</time>
      </trkpt>
      <trkpt lat="43.53521" lon="6.13925">
        <ele>360.79998779297</ele>
        <time>2017-10-14T08:15:14Z</time>
      </trkpt>
      <trkpt lat="43.5353" lon="6.13912">
        <ele>361</ele>
        <time>2017-10-14T08:15:41Z</time>
      </trkpt>
      <trkpt lat="43.53541" lon="6.13882">
        <ele>362</ele>
        <time>2017-10-14T08:16:08Z</time>
      </trkpt>
      <trkpt lat="43.53548" lon="6.13854">
        <ele>362.79998779297</ele>
        <time>2017-10-14T08:16:31Z</time>
      </trkpt>
      <trkpt lat="43.5355" lon="6.13814">
        <ele>364.20001220703</ele>
        <time>2017-10-14T08:17:00Z</time>
      </trkpt>
      <trkpt lat="43.53551" lon="6.13784">
        <ele>365.60000610352</ele>
        <time>2017-10-14T08:17:21Z</time>
      </trkpt>
      <trkpt lat="43.53551" lon="6.13766">
        <ele>366.39999389648</ele>
        <time>2017-10-14T08:17:33Z</time>
      </trkpt>
      <trkpt lat="43.53552" lon="6.13738">
        <ele>367.79998779297</ele>
        <time>2017-10-14T08:17:49Z</time>
      </trkpt>
      <trkpt lat="43.53552" lon="6.13711">
        <ele>370</ele>
        <time>2017-10-14T08:18:07Z</time>
      </trkpt>
      <trkpt lat="43.53545" lon="6.13687">
        <ele>372.20001220703</ele>
        <time>2017-10-14T08:18:31Z</time>
      </trkpt>
      <trkpt lat="43.5353" lon="6.13659">
        <ele>373.60000610352</ele>
        <time>2017-10-14T08:18:48Z</time>
      </trkpt>
      <trkpt lat="43.53518" lon="6.13644">
        <ele>373.79998779297</ele>
        <time>2017-10-14T08:19:10Z</time>
      </trkpt>
      <trkpt lat="43.53514" lon="6.13633">
        <ele>374.20001220703</ele>
        <time>2017-10-14T08:19:35Z</time>
      </trkpt>
      <trkpt lat="43.5351" lon="6.13622">
        <ele>374.39999389648</ele>
        <time>2017-10-14T08:20:14Z</time>
      </trkpt>
      <trkpt lat="43.53495" lon="6.13588">
        <ele>375.79998779297</ele>
        <time>2017-10-14T08:20:42Z</time>
      </trkpt>
      <trkpt lat="43.53493" lon="6.13584">
        <ele>376</ele>
        <time>2017-10-14T08:20:45Z</time>
      </trkpt>
      <trkpt lat="43.53481" lon="6.13558">
        <ele>377.39999389648</ele>
        <time>2017-10-14T08:21:03Z</time>
      </trkpt>
      <trkpt lat="43.53479" lon="6.13535">
        <ele>378.39999389648</ele>
        <time>2017-10-14T08:21:22Z</time>
      </trkpt>
      <trkpt lat="43.53477" lon="6.13494">
        <ele>378.60000610352</ele>
        <time>2017-10-14T08:21:49Z</time>
      </trkpt>
      <trkpt lat="43.53471" lon="6.1347">
        <ele>379.39999389648</ele>
        <time>2017-10-14T08:22:19Z</time>
      </trkpt>
      <trkpt lat="43.53463" lon="6.13465">
        <ele>380.60000610352</ele>
        <time>2017-10-14T08:22:51Z</time>
      </trkpt>
      <trkpt lat="43.53464" lon="6.13466">
        <ele>381.20001220703</ele>
        <time>2017-10-14T08:23:43Z</time>
      </trkpt>
      <trkpt lat="43.53471" lon="6.13472">
        <ele>380</ele>
        <time>2017-10-14T08:24:01Z</time>
      </trkpt>
      <trkpt lat="43.53469" lon="6.13472">
        <ele>379.39999389648</ele>
        <time>2017-10-14T08:24:16Z</time>
      </trkpt>
      <trkpt lat="43.53468" lon="6.13475">
        <ele>379.39999389648</ele>
        <time>2017-10-14T08:24:18Z</time>
      </trkpt>
      <trkpt lat="43.53467" lon="6.13477">
        <ele>379.20001220703</ele>
        <time>2017-10-14T08:24:20Z</time>
      </trkpt>
      <trkpt lat="43.53469" lon="6.13478">
        <ele>379.39999389648</ele>
        <time>2017-10-14T08:25:11Z</time>
      </trkpt>
      <trkpt lat="43.5347" lon="6.13455">
        <ele>379.60000610352</ele>
        <time>2017-10-14T08:25:47Z</time>
      </trkpt>
      <trkpt lat="43.53472" lon="6.1342">
        <ele>381.79998779297</ele>
        <time>2017-10-14T08:26:15Z</time>
      </trkpt>
      <trkpt lat="43.53475" lon="6.13381">
        <ele>382</ele>
        <time>2017-10-14T08:26:41Z</time>
      </trkpt>
      <trkpt lat="43.53474" lon="6.13348">
        <ele>381.79998779297</ele>
        <time>2017-10-14T08:27:01Z</time>
      </trkpt>
      <trkpt lat="43.53474" lon="6.13318">
        <ele>382.20001220703</ele>
        <time>2017-10-14T08:27:19Z</time>
      </trkpt>
      <trkpt lat="43.53475" lon="6.13309">
        <ele>382.20001220703</ele>
        <time>2017-10-14T08:27:25Z</time>
      </trkpt>
      <trkpt lat="43.53477" lon="6.13281">
        <ele>382.39999389648</ele>
        <time>2017-10-14T08:27:46Z</time>
      </trkpt>
      <trkpt lat="43.53479" lon="6.13245">
        <ele>382.20001220703</ele>
        <time>2017-10-14T08:28:07Z</time>
      </trkpt>
      <trkpt lat="43.53483" lon="6.13221">
        <ele>381.79998779297</ele>
        <time>2017-10-14T08:28:24Z</time>
      </trkpt>
      <trkpt lat="43.53491" lon="6.13185">
        <ele>381.60000610352</ele>
        <time>2017-10-14T08:28:47Z</time>
      </trkpt>
      <trkpt lat="43.53494" lon="6.13171">
        <ele>381.39999389648</ele>
        <time>2017-10-14T08:28:56Z</time>
      </trkpt>
      <trkpt lat="43.53497" lon="6.13146">
        <ele>380.60000610352</ele>
        <time>2017-10-14T08:29:14Z</time>
      </trkpt>
      <trkpt lat="43.53495" lon="6.13103">
        <ele>379.79998779297</ele>
        <time>2017-10-14T08:29:40Z</time>
      </trkpt>
      <trkpt lat="43.53494" lon="6.13074">
        <ele>379</ele>
        <time>2017-10-14T08:30:00Z</time>
      </trkpt>
      <trkpt lat="43.53492" lon="6.13043">
        <ele>378.39999389648</ele>
        <time>2017-10-14T08:30:16Z</time>
      </trkpt>
      <trkpt lat="43.53495" lon="6.13026">
        <ele>378.39999389648</ele>
        <time>2017-10-14T08:30:28Z</time>
      </trkpt>
      <trkpt lat="43.53498" lon="6.12997">
        <ele>378.20001220703</ele>
        <time>2017-10-14T08:30:45Z</time>
      </trkpt>
      <trkpt lat="43.535" lon="6.12975">
        <ele>378.20001220703</ele>
        <time>2017-10-14T08:31:00Z</time>
      </trkpt>
      <trkpt lat="43.53501" lon="6.12962">
        <ele>378.39999389648</ele>
        <time>2017-10-14T08:31:12Z</time>
      </trkpt>
      <trkpt lat="43.535" lon="6.1294">
        <ele>378.20001220703</ele>
        <time>2017-10-14T08:31:30Z</time>
      </trkpt>
      <trkpt lat="43.53498" lon="6.12933">
        <ele>378.39999389648</ele>
        <time>2017-10-14T08:32:41Z</time>
      </trkpt>
      <trkpt lat="43.53497" lon="6.12911">
        <ele>378.39999389648</ele>
        <time>2017-10-14T08:33:04Z</time>
      </trkpt>
      <trkpt lat="43.53497" lon="6.12883">
        <ele>378.60000610352</ele>
        <time>2017-10-14T08:33:23Z</time>
      </trkpt>
      <trkpt lat="43.53494" lon="6.1286">
        <ele>378.79998779297</ele>
        <time>2017-10-14T08:33:39Z</time>
      </trkpt>
      <trkpt lat="43.53493" lon="6.1283">
        <ele>379</ele>
        <time>2017-10-14T08:33:57Z</time>
      </trkpt>
      <trkpt lat="43.53491" lon="6.1281">
        <ele>379.39999389648</ele>
        <time>2017-10-14T08:34:11Z</time>
      </trkpt>
      <trkpt lat="43.5349" lon="6.12786">
        <ele>379.39999389648</ele>
        <time>2017-10-14T08:34:28Z</time>
      </trkpt>
      <trkpt lat="43.53488" lon="6.12747">
        <ele>379.60000610352</ele>
        <time>2017-10-14T08:34:59Z</time>
      </trkpt>
      <trkpt lat="43.53484" lon="6.12711">
        <ele>380</ele>
        <time>2017-10-14T08:35:30Z</time>
      </trkpt>
      <trkpt lat="43.53489" lon="6.12701">
        <ele>380.20001220703</ele>
        <time>2017-10-14T08:35:51Z</time>
      </trkpt>
      <trkpt lat="43.53488" lon="6.12698">
        <ele>380.39999389648</ele>
        <time>2017-10-14T08:36:55Z</time>
      </trkpt>
      <trkpt lat="43.53483" lon="6.12697">
        <ele>380.20001220703</ele>
        <time>2017-10-14T08:37:54Z</time>
      </trkpt>
      <trkpt lat="43.53483" lon="6.12689">
        <ele>380.39999389648</ele>
        <time>2017-10-14T08:38:28Z</time>
      </trkpt>
      <trkpt lat="43.53469" lon="6.1268">
        <ele>380</ele>
        <time>2017-10-14T08:38:55Z</time>
      </trkpt>
      <trkpt lat="43.53455" lon="6.12691">
        <ele>379.39999389648</ele>
        <time>2017-10-14T08:39:20Z</time>
      </trkpt>
      <trkpt lat="43.53453" lon="6.12691">
        <ele>379.20001220703</ele>
        <time>2017-10-14T08:39:26Z</time>
      </trkpt>
      <trkpt lat="43.53434" lon="6.12704">
        <ele>378.79998779297</ele>
        <time>2017-10-14T08:39:50Z</time>
      </trkpt>
      <trkpt lat="43.53408" lon="6.12718">
        <ele>378.60000610352</ele>
        <time>2017-10-14T08:40:16Z</time>
      </trkpt>
      <trkpt lat="43.5339" lon="6.12735">
        <ele>378.39999389648</ele>
        <time>2017-10-14T08:40:38Z</time>
      </trkpt>
      <trkpt lat="43.53375" lon="6.12769">
        <ele>376.60000610352</ele>
        <time>2017-10-14T08:41:03Z</time>
      </trkpt>
      <trkpt lat="43.5336" lon="6.12794">
        <ele>376.20001220703</ele>
        <time>2017-10-14T08:41:25Z</time>
      </trkpt>
      <trkpt lat="43.53341" lon="6.12815">
        <ele>375.79998779297</ele>
        <time>2017-10-14T08:41:45Z</time>
      </trkpt>
      <trkpt lat="43.53318" lon="6.12838">
        <ele>375.20001220703</ele>
        <time>2017-10-14T08:42:12Z</time>
      </trkpt>
      <trkpt lat="43.53308" lon="6.12852">
        <ele>374.79998779297</ele>
        <time>2017-10-14T08:42:38Z</time>
      </trkpt>
      <trkpt lat="43.53302" lon="6.12855">
        <ele>375</ele>
        <time>2017-10-14T08:43:21Z</time>
      </trkpt>
      <trkpt lat="43.53305" lon="6.12857">
        <ele>375</ele>
        <time>2017-10-14T08:43:37Z</time>
      </trkpt>
      <trkpt lat="43.53303" lon="6.12858">
        <ele>375</ele>
        <time>2017-10-14T08:44:13Z</time>
      </trkpt>
      <trkpt lat="43.53307" lon="6.12857">
        <ele>375.20001220703</ele>
        <time>2017-10-14T08:45:20Z</time>
      </trkpt>
      <trkpt lat="43.53307" lon="6.12856">
        <ele>374.79998779297</ele>
        <time>2017-10-14T08:46:27Z</time>
      </trkpt>
      <trkpt lat="43.53296" lon="6.12867">
        <ele>374.39999389648</ele>
        <time>2017-10-14T08:46:49Z</time>
      </trkpt>
      <trkpt lat="43.5329" lon="6.12874">
        <ele>374.39999389648</ele>
        <time>2017-10-14T08:47:22Z</time>
      </trkpt>
      <trkpt lat="43.5328" lon="6.12885">
        <ele>374.39999389648</ele>
        <time>2017-10-14T08:47:46Z</time>
      </trkpt>
      <trkpt lat="43.53265" lon="6.12901">
        <ele>374.20001220703</ele>
        <time>2017-10-14T08:48:13Z</time>
      </trkpt>
      <trkpt lat="43.53248" lon="6.12921">
        <ele>374.20001220703</ele>
        <time>2017-10-14T08:48:37Z</time>
      </trkpt>
      <trkpt lat="43.53231" lon="6.12951">
        <ele>374.20001220703</ele>
        <time>2017-10-14T08:49:04Z</time>
      </trkpt>
      <trkpt lat="43.53216" lon="6.12968">
        <ele>374</ele>
        <time>2017-10-14T08:49:24Z</time>
      </trkpt>
      <trkpt lat="43.53192" lon="6.12987">
        <ele>374</ele>
        <time>2017-10-14T08:49:49Z</time>
      </trkpt>
      <trkpt lat="43.5319" lon="6.1299">
        <ele>374</ele>
        <time>2017-10-14T08:49:52Z</time>
      </trkpt>
      <trkpt lat="43.53171" lon="6.13005">
        <ele>374.20001220703</ele>
        <time>2017-10-14T08:50:11Z</time>
      </trkpt>
      <trkpt lat="43.5315" lon="6.13023">
        <ele>374.60000610352</ele>
        <time>2017-10-14T08:50:32Z</time>
      </trkpt>
      <trkpt lat="43.53135" lon="6.13036">
        <ele>375.20001220703</ele>
        <time>2017-10-14T08:50:49Z</time>
      </trkpt>
      <trkpt lat="43.53112" lon="6.13065">
        <ele>376.39999389648</ele>
        <time>2017-10-14T08:51:14Z</time>
      </trkpt>
      <trkpt lat="43.53098" lon="6.13087">
        <ele>377</ele>
        <time>2017-10-14T08:51:34Z</time>
      </trkpt>
      <trkpt lat="43.53087" lon="6.13103">
        <ele>377.20001220703</ele>
        <time>2017-10-14T08:51:49Z</time>
      </trkpt>
      <trkpt lat="43.53074" lon="6.13121">
        <ele>377.60000610352</ele>
        <time>2017-10-14T08:52:08Z</time>
      </trkpt>
      <trkpt lat="43.53068" lon="6.13142">
        <ele>377.60000610352</ele>
        <time>2017-10-14T08:52:20Z</time>
      </trkpt>
      <trkpt lat="43.53057" lon="6.13167">
        <ele>377</ele>
        <time>2017-10-14T08:52:38Z</time>
      </trkpt>
      <trkpt lat="43.53051" lon="6.13176">
        <ele>376.60000610352</ele>
        <time>2017-10-14T08:53:00Z</time>
      </trkpt>
      <trkpt lat="43.53036" lon="6.13203">
        <ele>375.79998779297</ele>
        <time>2017-10-14T08:53:25Z</time>
      </trkpt>
      <trkpt lat="43.53018" lon="6.1322">
        <ele>375.39999389648</ele>
        <time>2017-10-14T08:53:47Z</time>
      </trkpt>
      <trkpt lat="43.53011" lon="6.13227">
        <ele>375.39999389648</ele>
        <time>2017-10-14T08:54:18Z</time>
      </trkpt>
      <trkpt lat="43.5301" lon="6.13231">
        <ele>375.20001220703</ele>
        <time>2017-10-14T08:55:13Z</time>
      </trkpt>
      <trkpt lat="43.53006" lon="6.13232">
        <ele>375</ele>
        <time>2017-10-14T08:56:08Z</time>
      </trkpt>
      <trkpt lat="43.53004" lon="6.13234">
        <ele>374.79998779297</ele>
        <time>2017-10-14T08:56:43Z</time>
      </trkpt>
      <trkpt lat="43.53002" lon="6.13228">
        <ele>374.79998779297</ele>
        <time>2017-10-14T08:57:40Z</time>
      </trkpt>
      <trkpt lat="43.53003" lon="6.13232">
        <ele>374.60000610352</ele>
        <time>2017-10-14T08:58:28Z</time>
      </trkpt>
      <trkpt lat="43.52989" lon="6.1324">
        <ele>374.39999389648</ele>
        <time>2017-10-14T08:58:51Z</time>
      </trkpt>
      <trkpt lat="43.5297" lon="6.13253">
        <ele>373.79998779297</ele>
        <time>2017-10-14T08:59:16Z</time>
      </trkpt>
      <trkpt lat="43.52944" lon="6.13269">
        <ele>373.60000610352</ele>
        <time>2017-10-14T08:59:44Z</time>
      </trkpt>
      <trkpt lat="43.52926" lon="6.1328">
        <ele>373.60000610352</ele>
        <time>2017-10-14T09:00:07Z</time>
      </trkpt>
      <trkpt lat="43.52896" lon="6.13299">
        <ele>373.60000610352</ele>
        <time>2017-10-14T09:00:36Z</time>
      </trkpt>
      <trkpt lat="43.52876" lon="6.13313">
        <ele>373.79998779297</ele>
        <time>2017-10-14T09:00:56Z</time>
      </trkpt>
      <trkpt lat="43.52861" lon="6.13324">
        <ele>374.39999389648</ele>
        <time>2017-10-14T09:01:13Z</time>
      </trkpt>
      <trkpt lat="43.52843" lon="6.1334">
        <ele>375.79998779297</ele>
        <time>2017-10-14T09:01:36Z</time>
      </trkpt>
      <trkpt lat="43.52824" lon="6.13347">
        <ele>376.60000610352</ele>
        <time>2017-10-14T09:01:54Z</time>
      </trkpt>
      <trkpt lat="43.52806" lon="6.13352">
        <ele>377.20001220703</ele>
        <time>2017-10-14T09:02:11Z</time>
      </trkpt>
      <trkpt lat="43.52779" lon="6.13367">
        <ele>378</ele>
        <time>2017-10-14T09:02:38Z</time>
      </trkpt>
      <trkpt lat="43.52776" lon="6.1337">
        <ele>378.20001220703</ele>
        <time>2017-10-14T09:02:41Z</time>
      </trkpt>
      <trkpt lat="43.52761" lon="6.1338">
        <ele>378.39999389648</ele>
        <time>2017-10-14T09:02:59Z</time>
      </trkpt>
      <trkpt lat="43.52754" lon="6.13383">
        <ele>378.39999389648</ele>
        <time>2017-10-14T09:03:33Z</time>
      </trkpt>
      <trkpt lat="43.5275" lon="6.13381">
        <ele>378.39999389648</ele>
        <time>2017-10-14T09:04:06Z</time>
      </trkpt>
      <trkpt lat="43.52749" lon="6.13398">
        <ele>377.79998779297</ele>
        <time>2017-10-14T09:04:27Z</time>
      </trkpt>
      <trkpt lat="43.52753" lon="6.13404">
        <ele>377.60000610352</ele>
        <time>2017-10-14T09:05:07Z</time>
      </trkpt>
      <trkpt lat="43.52753" lon="6.13399">
        <ele>377.60000610352</ele>
        <time>2017-10-14T09:05:51Z</time>
      </trkpt>
      <trkpt lat="43.52754" lon="6.13399">
        <ele>377.60000610352</ele>
        <time>2017-10-14T09:06:37Z</time>
      </trkpt>
      <trkpt lat="43.52758" lon="6.13399">
        <ele>377.60000610352</ele>
        <time>2017-10-14T09:07:33Z</time>
      </trkpt>
      <trkpt lat="43.52752" lon="6.13397">
        <ele>377.60000610352</ele>
        <time>2017-10-14T09:08:44Z</time>
      </trkpt>
      <trkpt lat="43.52742" lon="6.13411">
        <ele>377</ele>
        <time>2017-10-14T09:09:26Z</time>
      </trkpt>
      <trkpt lat="43.52733" lon="6.13436">
        <ele>375.60000610352</ele>
        <time>2017-10-14T09:09:47Z</time>
      </trkpt>
      <trkpt lat="43.5273" lon="6.13449">
        <ele>374.79998779297</ele>
        <time>2017-10-14T09:09:57Z</time>
      </trkpt>
      <trkpt lat="43.52726" lon="6.13468">
        <ele>373.60000610352</ele>
        <time>2017-10-14T09:10:12Z</time>
      </trkpt>
      <trkpt lat="43.52721" lon="6.13498">
        <ele>372.20001220703</ele>
        <time>2017-10-14T09:10:35Z</time>
      </trkpt>
      <trkpt lat="43.5271" lon="6.13521">
        <ele>371.60000610352</ele>
        <time>2017-10-14T09:10:52Z</time>
      </trkpt>
      <trkpt lat="43.52703" lon="6.13527">
        <ele>370.79998779297</ele>
        <time>2017-10-14T09:11:11Z</time>
      </trkpt>
      <trkpt lat="43.52696" lon="6.13533">
        <ele>369.60000610352</ele>
        <time>2017-10-14T09:11:32Z</time>
      </trkpt>
      <trkpt lat="43.52694" lon="6.13539">
        <ele>369.39999389648</ele>
        <time>2017-10-14T09:12:54Z</time>
      </trkpt>
      <trkpt lat="43.52689" lon="6.13547">
        <ele>369</ele>
        <time>2017-10-14T09:13:34Z</time>
      </trkpt>
      <trkpt lat="43.52672" lon="6.13573">
        <ele>366.60000610352</ele>
        <time>2017-10-14T09:14:00Z</time>
      </trkpt>
      <trkpt lat="43.52653" lon="6.13588">
        <ele>366</ele>
        <time>2017-10-14T09:14:22Z</time>
      </trkpt>
      <trkpt lat="43.52631" lon="6.13613">
        <ele>366.79998779297</ele>
        <time>2017-10-14T09:14:49Z</time>
      </trkpt>
      <trkpt lat="43.52619" lon="6.13633">
        <ele>368.39999389648</ele>
        <time>2017-10-14T09:15:08Z</time>
      </trkpt>
      <trkpt lat="43.52606" lon="6.13651">
        <ele>368.20001220703</ele>
        <time>2017-10-14T09:15:27Z</time>
      </trkpt>
      <trkpt lat="43.526" lon="6.13662">
        <ele>366.79998779297</ele>
        <time>2017-10-14T09:15:41Z</time>
      </trkpt>
      <trkpt lat="43.52605" lon="6.1366">
        <ele>366.20001220703</ele>
        <time>2017-10-14T09:16:16Z</time>
      </trkpt>
      <trkpt lat="43.52602" lon="6.13657">
        <ele>367.39999389648</ele>
        <time>2017-10-14T09:16:49Z</time>
      </trkpt>
      <trkpt lat="43.52598" lon="6.13662">
        <ele>366.79998779297</ele>
        <time>2017-10-14T09:17:28Z</time>
      </trkpt>
      <trkpt lat="43.52599" lon="6.13663">
        <ele>366.39999389648</ele>
        <time>2017-10-14T09:18:06Z</time>
      </trkpt>
      <trkpt lat="43.52602" lon="6.13659">
        <ele>366.79998779297</ele>
        <time>2017-10-14T09:18:43Z</time>
      </trkpt>
      <trkpt lat="43.526" lon="6.13654">
        <ele>367.60000610352</ele>
        <time>2017-10-14T09:19:18Z</time>
      </trkpt>
      <trkpt lat="43.52599" lon="6.13653">
        <ele>370.39999389648</ele>
        <time>2017-10-14T09:19:50Z</time>
      </trkpt>
      <trkpt lat="43.52598" lon="6.13652">
        <ele>370.60000610352</ele>
        <time>2017-10-14T09:20:35Z</time>
      </trkpt>
      <trkpt lat="43.52606" lon="6.13638">
        <ele>371.39999389648</ele>
        <time>2017-10-14T09:20:50Z</time>
      </trkpt>
      <trkpt lat="43.52618" lon="6.1363">
        <ele>370.39999389648</ele>
        <time>2017-10-14T09:21:06Z</time>
      </trkpt>
      <trkpt lat="43.52618" lon="6.13639">
        <ele>369.20001220703</ele>
        <time>2017-10-14T09:21:15Z</time>
      </trkpt>
      <trkpt lat="43.52609" lon="6.13651">
        <ele>368.60000610352</ele>
        <time>2017-10-14T09:21:30Z</time>
      </trkpt>
      <trkpt lat="43.52601" lon="6.13658">
        <ele>367.60000610352</ele>
        <time>2017-10-14T09:21:46Z</time>
      </trkpt>
      <trkpt lat="43.52596" lon="6.13675">
        <ele>366</ele>
        <time>2017-10-14T09:22:06Z</time>
      </trkpt>
      <trkpt lat="43.52585" lon="6.13685">
        <ele>363.39999389648</ele>
        <time>2017-10-14T09:22:35Z</time>
      </trkpt>
      <trkpt lat="43.52574" lon="6.13702">
        <ele>360.79998779297</ele>
        <time>2017-10-14T09:22:59Z</time>
      </trkpt>
      <trkpt lat="43.52565" lon="6.1372">
        <ele>357.79998779297</ele>
        <time>2017-10-14T09:23:28Z</time>
      </trkpt>
      <trkpt lat="43.52558" lon="6.13735">
        <ele>355.60000610352</ele>
        <time>2017-10-14T09:23:48Z</time>
      </trkpt>
      <trkpt lat="43.52556" lon="6.13761">
        <ele>353</ele>
        <time>2017-10-14T09:24:11Z</time>
      </trkpt>
      <trkpt lat="43.52554" lon="6.13783">
        <ele>351.60000610352</ele>
        <time>2017-10-14T09:24:31Z</time>
      </trkpt>
      <trkpt lat="43.52551" lon="6.13788">
        <ele>350.60000610352</ele>
        <time>2017-10-14T09:25:02Z</time>
      </trkpt>
      <trkpt lat="43.52553" lon="6.13779">
        <ele>350.79998779297</ele>
        <time>2017-10-14T09:25:40Z</time>
      </trkpt>
      <trkpt lat="43.52553" lon="6.13785">
        <ele>351</ele>
        <time>2017-10-14T09:26:45Z</time>
      </trkpt>
      <trkpt lat="43.52553" lon="6.13792">
        <ele>351.20001220703</ele>
        <time>2017-10-14T09:27:19Z</time>
      </trkpt>
      <trkpt lat="43.52549" lon="6.13806">
        <ele>349.79998779297</ele>
        <time>2017-10-14T09:27:35Z</time>
      </trkpt>
      <trkpt lat="43.52544" lon="6.13817">
        <ele>348.79998779297</ele>
        <time>2017-10-14T09:27:56Z</time>
      </trkpt>
      <trkpt lat="43.52542" lon="6.1383">
        <ele>347.60000610352</ele>
        <time>2017-10-14T09:28:18Z</time>
      </trkpt>
      <trkpt lat="43.52541" lon="6.13843">
        <ele>346.20001220703</ele>
        <time>2017-10-14T09:28:34Z</time>
      </trkpt>
      <trkpt lat="43.52534" lon="6.13853">
        <ele>344</ele>
        <time>2017-10-14T09:28:52Z</time>
      </trkpt>
      <trkpt lat="43.52531" lon="6.13858">
        <ele>342.79998779297</ele>
        <time>2017-10-14T09:29:10Z</time>
      </trkpt>
      <trkpt lat="43.52529" lon="6.1386">
        <ele>342.60000610352</ele>
        <time>2017-10-14T09:29:42Z</time>
      </trkpt>
      <trkpt lat="43.52531" lon="6.13859">
        <ele>342.39999389648</ele>
        <time>2017-10-14T09:30:10Z</time>
      </trkpt>
      <trkpt lat="43.5253" lon="6.13865">
        <ele>342.20001220703</ele>
        <time>2017-10-14T09:30:44Z</time>
      </trkpt>
      <trkpt lat="43.52531" lon="6.13857">
        <ele>342.39999389648</ele>
        <time>2017-10-14T09:31:27Z</time>
      </trkpt>
      <trkpt lat="43.52528" lon="6.13861">
        <ele>342.20001220703</ele>
        <time>2017-10-14T09:32:05Z</time>
      </trkpt>
      <trkpt lat="43.5252" lon="6.13872">
        <ele>341.39999389648</ele>
        <time>2017-10-14T09:32:25Z</time>
      </trkpt>
      <trkpt lat="43.52509" lon="6.13881">
        <ele>340.20001220703</ele>
        <time>2017-10-14T09:32:45Z</time>
      </trkpt>
      <trkpt lat="43.52499" lon="6.13896">
        <ele>339</ele>
        <time>2017-10-14T09:33:04Z</time>
      </trkpt>
      <trkpt lat="43.5249" lon="6.13909">
        <ele>337.79998779297</ele>
        <time>2017-10-14T09:33:20Z</time>
      </trkpt>
      <trkpt lat="43.52482" lon="6.13925">
        <ele>336.79998779297</ele>
        <time>2017-10-14T09:33:39Z</time>
      </trkpt>
      <trkpt lat="43.52473" lon="6.13941">
        <ele>335.79998779297</ele>
        <time>2017-10-14T09:33:59Z</time>
      </trkpt>
      <trkpt lat="43.52468" lon="6.13955">
        <ele>335.20001220703</ele>
        <time>2017-10-14T09:34:12Z</time>
      </trkpt>
      <trkpt lat="43.52465" lon="6.13973">
        <ele>334.79998779297</ele>
        <time>2017-10-14T09:34:26Z</time>
      </trkpt>
      <trkpt lat="43.52458" lon="6.13998">
        <ele>334.39999389648</ele>
        <time>2017-10-14T09:34:46Z</time>
      </trkpt>
      <trkpt lat="43.52451" lon="6.14013">
        <ele>334.39999389648</ele>
        <time>2017-10-14T09:35:03Z</time>
      </trkpt>
      <trkpt lat="43.52439" lon="6.1403">
        <ele>333.79998779297</ele>
        <time>2017-10-14T09:35:28Z</time>
      </trkpt>
      <trkpt lat="43.52424" lon="6.14045">
        <ele>331</ele>
        <time>2017-10-14T09:35:53Z</time>
      </trkpt>
      <trkpt lat="43.52411" lon="6.14065">
        <ele>328</ele>
        <time>2017-10-14T09:36:18Z</time>
      </trkpt>
      <trkpt lat="43.52415" lon="6.14092">
        <ele>326.60000610352</ele>
        <time>2017-10-14T09:36:39Z</time>
      </trkpt>
      <trkpt lat="43.52416" lon="6.14123">
        <ele>325.79998779297</ele>
        <time>2017-10-14T09:36:57Z</time>
      </trkpt>
      <trkpt lat="43.52423" lon="6.14147">
        <ele>325.20001220703</ele>
        <time>2017-10-14T09:37:18Z</time>
      </trkpt>
      <trkpt lat="43.52428" lon="6.14184">
        <ele>323</ele>
        <time>2017-10-14T09:37:44Z</time>
      </trkpt>
      <trkpt lat="43.52428" lon="6.14195">
        <ele>322</ele>
        <time>2017-10-14T09:38:12Z</time>
      </trkpt>
      <trkpt lat="43.5243" lon="6.14196">
        <ele>321.79998779297</ele>
        <time>2017-10-14T09:38:36Z</time>
      </trkpt>
      <trkpt lat="43.52426" lon="6.14196">
        <ele>322</ele>
        <time>2017-10-14T09:40:02Z</time>
      </trkpt>
      <trkpt lat="43.52429" lon="6.14194">
        <ele>321.79998779297</ele>
        <time>2017-10-14T09:40:51Z</time>
      </trkpt>
      <trkpt lat="43.52431" lon="6.14198">
        <ele>321.60000610352</ele>
        <time>2017-10-14T09:41:21Z</time>
      </trkpt>
      <trkpt lat="43.52432" lon="6.14204">
        <ele>321.60000610352</ele>
        <time>2017-10-14T09:42:07Z</time>
      </trkpt>
      <trkpt lat="43.52428" lon="6.14203">
        <ele>321.60000610352</ele>
        <time>2017-10-14T09:42:55Z</time>
      </trkpt>
      <trkpt lat="43.52424" lon="6.1422">
        <ele>321.20001220703</ele>
        <time>2017-10-14T09:43:29Z</time>
      </trkpt>
      <trkpt lat="43.52417" lon="6.14239">
        <ele>320.79998779297</ele>
        <time>2017-10-14T09:43:48Z</time>
      </trkpt>
      <trkpt lat="43.5241" lon="6.14256">
        <ele>320.20001220703</ele>
        <time>2017-10-14T09:44:04Z</time>
      </trkpt>
      <trkpt lat="43.52403" lon="6.14274">
        <ele>320</ele>
        <time>2017-10-14T09:44:24Z</time>
      </trkpt>
      <trkpt lat="43.52394" lon="6.14294">
        <ele>320</ele>
        <time>2017-10-14T09:44:57Z</time>
      </trkpt>
      <trkpt lat="43.52389" lon="6.14305">
        <ele>320.20001220703</ele>
        <time>2017-10-14T09:45:13Z</time>
      </trkpt>
      <trkpt lat="43.52378" lon="6.14324">
        <ele>321.20001220703</ele>
        <time>2017-10-14T09:45:35Z</time>
      </trkpt>
      <trkpt lat="43.52369" lon="6.14339">
        <ele>322.20001220703</ele>
        <time>2017-10-14T09:45:50Z</time>
      </trkpt>
      <trkpt lat="43.52365" lon="6.14353">
        <ele>322.39999389648</ele>
        <time>2017-10-14T09:46:06Z</time>
      </trkpt>
      <trkpt lat="43.52367" lon="6.14354">
        <ele>322.60000610352</ele>
        <time>2017-10-14T09:46:52Z</time>
      </trkpt>
      <trkpt lat="43.52378" lon="6.14355">
        <ele>323</ele>
        <time>2017-10-14T09:47:11Z</time>
      </trkpt>
      <trkpt lat="43.52373" lon="6.14355">
        <ele>323</ele>
        <time>2017-10-14T09:47:38Z</time>
      </trkpt>
      <trkpt lat="43.52368" lon="6.14359">
        <ele>322.39999389648</ele>
        <time>2017-10-14T09:47:56Z</time>
      </trkpt>
      <trkpt lat="43.5236" lon="6.14377">
        <ele>322</ele>
        <time>2017-10-14T09:48:25Z</time>
      </trkpt>
      <trkpt lat="43.52351" lon="6.14393">
        <ele>321.60000610352</ele>
        <time>2017-10-14T09:48:46Z</time>
      </trkpt>
      <trkpt lat="43.52336" lon="6.14417">
        <ele>321.39999389648</ele>
        <time>2017-10-14T09:49:09Z</time>
      </trkpt>
      <trkpt lat="43.52328" lon="6.14428">
        <ele>320.79998779297</ele>
        <time>2017-10-14T09:49:18Z</time>
      </trkpt>
      <trkpt lat="43.52314" lon="6.14445">
        <ele>320</ele>
        <time>2017-10-14T09:49:34Z</time>
      </trkpt>
      <trkpt lat="43.5231" lon="6.1445">
        <ele>320</ele>
        <time>2017-10-14T09:49:41Z</time>
      </trkpt>
      <trkpt lat="43.52296" lon="6.14464">
        <ele>319.79998779297</ele>
        <time>2017-10-14T09:49:59Z</time>
      </trkpt>
      <trkpt lat="43.52277" lon="6.1449">
        <ele>320.79998779297</ele>
        <time>2017-10-14T09:50:23Z</time>
      </trkpt>
      <trkpt lat="43.52265" lon="6.14509">
        <ele>322.20001220703</ele>
        <time>2017-10-14T09:50:47Z</time>
      </trkpt>
      <trkpt lat="43.52257" lon="6.14531">
        <ele>324</ele>
        <time>2017-10-14T09:51:08Z</time>
      </trkpt>
      <trkpt lat="43.52242" lon="6.14549">
        <ele>325.60000610352</ele>
        <time>2017-10-14T09:51:27Z</time>
      </trkpt>
      <trkpt lat="43.52229" lon="6.14567">
        <ele>327.20001220703</ele>
        <time>2017-10-14T09:51:47Z</time>
      </trkpt>
      <trkpt lat="43.52217" lon="6.14576">
        <ele>328</ele>
        <time>2017-10-14T09:52:04Z</time>
      </trkpt>
      <trkpt lat="43.52216" lon="6.1457">
        <ele>328.79998779297</ele>
        <time>2017-10-14T09:52:22Z</time>
      </trkpt>
      <trkpt lat="43.52218" lon="6.1457">
        <ele>329.60000610352</ele>
        <time>2017-10-14T09:52:41Z</time>
      </trkpt>
      <trkpt lat="43.52214" lon="6.14566">
        <ele>329.60000610352</ele>
        <time>2017-10-14T09:53:30Z</time>
      </trkpt>
      <trkpt lat="43.52209" lon="6.14575">
        <ele>329</ele>
        <time>2017-10-14T09:53:48Z</time>
      </trkpt>
      <trkpt lat="43.52211" lon="6.14574">
        <ele>329.20001220703</ele>
        <time>2017-10-14T09:54:22Z</time>
      </trkpt>
      <trkpt lat="43.52215" lon="6.14573">
        <ele>330</ele>
        <time>2017-10-14T09:55:02Z</time>
      </trkpt>
      <trkpt lat="43.52203" lon="6.14582">
        <ele>329.20001220703</ele>
        <time>2017-10-14T09:55:23Z</time>
      </trkpt>
      <trkpt lat="43.52205" lon="6.14576">
        <ele>329</ele>
        <time>2017-10-14T09:55:55Z</time>
      </trkpt>
      <trkpt lat="43.52202" lon="6.14582">
        <ele>329</ele>
        <time>2017-10-14T09:56:55Z</time>
      </trkpt>
      <trkpt lat="43.52204" lon="6.14574">
        <ele>329.20001220703</ele>
        <time>2017-10-14T09:58:00Z</time>
      </trkpt>
      <trkpt lat="43.52205" lon="6.14575">
        <ele>329.39999389648</ele>
        <time>2017-10-14T09:58:48Z</time>
      </trkpt>
      <trkpt lat="43.52201" lon="6.14579">
        <ele>329.60000610352</ele>
        <time>2017-10-14T09:59:44Z</time>
      </trkpt>
      <trkpt lat="43.52194" lon="6.14585">
        <ele>329.60000610352</ele>
        <time>2017-10-14T10:00:17Z</time>
      </trkpt>
      <trkpt lat="43.52181" lon="6.14594">
        <ele>329</ele>
        <time>2017-10-14T10:00:36Z</time>
      </trkpt>
      <trkpt lat="43.52158" lon="6.14605">
        <ele>327.20001220703</ele>
        <time>2017-10-14T10:00:59Z</time>
      </trkpt>
      <trkpt lat="43.52153" lon="6.14607">
        <ele>327</ele>
        <time>2017-10-14T10:01:03Z</time>
      </trkpt>
      <trkpt lat="43.52139" lon="6.14617">
        <ele>327</ele>
        <time>2017-10-14T10:01:18Z</time>
      </trkpt>
      <trkpt lat="43.52144" lon="6.1463">
        <ele>327</ele>
        <time>2017-10-14T10:01:58Z</time>
      </trkpt>
      <trkpt lat="43.52147" lon="6.14643">
        <ele>325</ele>
        <time>2017-10-14T10:02:15Z</time>
      </trkpt>
      <trkpt lat="43.52151" lon="6.14645">
        <ele>323.60000610352</ele>
        <time>2017-10-14T10:02:41Z</time>
      </trkpt>
      <trkpt lat="43.52149" lon="6.14643">
        <ele>323.60000610352</ele>
        <time>2017-10-14T10:03:03Z</time>
      </trkpt>
      <trkpt lat="43.52143" lon="6.14647">
        <ele>322.79998779297</ele>
        <time>2017-10-14T10:03:31Z</time>
      </trkpt>
      <trkpt lat="43.52131" lon="6.14658">
        <ele>321.60000610352</ele>
        <time>2017-10-14T10:03:53Z</time>
      </trkpt>
      <trkpt lat="43.52127" lon="6.14655">
        <ele>321.60000610352</ele>
        <time>2017-10-14T10:04:18Z</time>
      </trkpt>
      <trkpt lat="43.52123" lon="6.14663">
        <ele>321.20001220703</ele>
        <time>2017-10-14T10:04:52Z</time>
      </trkpt>
      <trkpt lat="43.52101" lon="6.14687">
        <ele>321</ele>
        <time>2017-10-14T10:05:22Z</time>
      </trkpt>
      <trkpt lat="43.52094" lon="6.14693">
        <ele>320.79998779297</ele>
        <time>2017-10-14T10:05:29Z</time>
      </trkpt>
      <trkpt lat="43.52081" lon="6.14707">
        <ele>320.79998779297</ele>
        <time>2017-10-14T10:05:45Z</time>
      </trkpt>
      <trkpt lat="43.52075" lon="6.1471">
        <ele>320.79998779297</ele>
        <time>2017-10-14T10:05:50Z</time>
      </trkpt>
      <trkpt lat="43.52069" lon="6.14715">
        <ele>320.39999389648</ele>
        <time>2017-10-14T10:06:05Z</time>
      </trkpt>
      <trkpt lat="43.52068" lon="6.14715">
        <ele>320.20001220703</ele>
        <time>2017-10-14T10:07:00Z</time>
      </trkpt>
      <trkpt lat="43.52067" lon="6.14719">
        <ele>320.60000610352</ele>
        <time>2017-10-14T10:07:33Z</time>
      </trkpt>
      <trkpt lat="43.52062" lon="6.14722">
        <ele>320.39999389648</ele>
        <time>2017-10-14T10:07:56Z</time>
      </trkpt>
      <trkpt lat="43.52061" lon="6.14725">
        <ele>320.39999389648</ele>
        <time>2017-10-14T10:08:33Z</time>
      </trkpt>
      <trkpt lat="43.52062" lon="6.14723">
        <ele>320.39999389648</ele>
        <time>2017-10-14T10:08:51Z</time>
      </trkpt>
      <trkpt lat="43.52058" lon="6.14729">
        <ele>320.20001220703</ele>
        <time>2017-10-14T10:09:11Z</time>
      </trkpt>
      <trkpt lat="43.52055" lon="6.14721">
        <ele>320.60000610352</ele>
        <time>2017-10-14T10:09:34Z</time>
      </trkpt>
      <trkpt lat="43.52052" lon="6.14712">
        <ele>323.79998779297</ele>
        <time>2017-10-14T10:09:49Z</time>
      </trkpt>
      <trkpt lat="43.52044" lon="6.14705">
        <ele>326.39999389648</ele>
        <time>2017-10-14T10:10:39Z</time>
      </trkpt>
      <trkpt lat="43.52037" lon="6.14702">
        <ele>327.79998779297</ele>
        <time>2017-10-14T10:10:59Z</time>
      </trkpt>
      <trkpt lat="43.52034" lon="6.14707">
        <ele>327.79998779297</ele>
        <time>2017-10-14T10:11:21Z</time>
      </trkpt>
      <trkpt lat="43.52033" lon="6.14714">
        <ele>327.60000610352</ele>
        <time>2017-10-14T10:11:41Z</time>
      </trkpt>
      <trkpt lat="43.52034" lon="6.14711">
        <ele>327.60000610352</ele>
        <time>2017-10-14T10:12:08Z</time>
      </trkpt>
      <trkpt lat="43.52028" lon="6.147">
        <ele>327.39999389648</ele>
        <time>2017-10-14T10:12:31Z</time>
      </trkpt>
      <trkpt lat="43.52022" lon="6.14697">
        <ele>327.60000610352</ele>
        <time>2017-10-14T10:12:56Z</time>
      </trkpt>
      <trkpt lat="43.52019" lon="6.14684">
        <ele>327.60000610352</ele>
        <time>2017-10-14T10:13:29Z</time>
      </trkpt>
      <trkpt lat="43.52023" lon="6.14695">
        <ele>327.39999389648</ele>
        <time>2017-10-14T10:13:50Z</time>
      </trkpt>
      <trkpt lat="43.52018" lon="6.14683">
        <ele>327.20001220703</ele>
        <time>2017-10-14T10:14:13Z</time>
      </trkpt>
      <trkpt lat="43.52012" lon="6.14669">
        <ele>327.20001220703</ele>
        <time>2017-10-14T10:14:30Z</time>
      </trkpt>
      <trkpt lat="43.52005" lon="6.14654">
        <ele>327</ele>
        <time>2017-10-14T10:14:47Z</time>
      </trkpt>
      <trkpt lat="43.52002" lon="6.14643">
        <ele>327.20001220703</ele>
        <time>2017-10-14T10:15:05Z</time>
      </trkpt>
      <trkpt lat="43.52002" lon="6.14641">
        <ele>327</ele>
        <time>2017-10-14T10:16:14Z</time>
      </trkpt>
      <trkpt lat="43.52002" lon="6.14655">
        <ele>327.39999389648</ele>
        <time>2017-10-14T10:17:00Z</time>
      </trkpt>
      <trkpt lat="43.51997" lon="6.14659">
        <ele>326.79998779297</ele>
        <time>2017-10-14T10:17:17Z</time>
      </trkpt>
      <trkpt lat="43.51996" lon="6.1466">
        <ele>326.79998779297</ele>
        <time>2017-10-14T10:17:41Z</time>
      </trkpt>
      <trkpt lat="43.52003" lon="6.14663">
        <ele>327</ele>
        <time>2017-10-14T10:18:48Z</time>
      </trkpt>
      <trkpt lat="43.52009" lon="6.14671">
        <ele>327.39999389648</ele>
        <time>2017-10-14T10:19:08Z</time>
      </trkpt>
      <trkpt lat="43.52012" lon="6.14667">
        <ele>327.39999389648</ele>
        <time>2017-10-14T10:19:41Z</time>
      </trkpt>
      <trkpt lat="43.52014" lon="6.14667">
        <ele>328.20001220703</ele>
        <time>2017-10-14T10:20:17Z</time>
      </trkpt>
      <trkpt lat="43.52019" lon="6.14659">
        <ele>328.39999389648</ele>
        <time>2017-10-14T10:20:39Z</time>
      </trkpt>
      <trkpt lat="43.52026" lon="6.14649">
        <ele>329.20001220703</ele>
        <time>2017-10-14T10:21:00Z</time>
      </trkpt>
      <trkpt lat="43.52028" lon="6.14636">
        <ele>330.20001220703</ele>
        <time>2017-10-14T10:21:26Z</time>
      </trkpt>
      <trkpt lat="43.52033" lon="6.14633">
        <ele>330</ele>
        <time>2017-10-14T10:21:54Z</time>
      </trkpt>
      <trkpt lat="43.52035" lon="6.14633">
        <ele>330</ele>
        <time>2017-10-14T10:22:15Z</time>
      </trkpt>
      <trkpt lat="43.52038" lon="6.14633">
        <ele>329.79998779297</ele>
        <time>2017-10-14T10:23:36Z</time>
      </trkpt>
      <trkpt lat="43.52036" lon="6.14632">
        <ele>329.79998779297</ele>
        <time>2017-10-14T10:24:46Z</time>
      </trkpt>
      <trkpt lat="43.52037" lon="6.14632">
        <ele>330</ele>
        <time>2017-10-14T10:25:58Z</time>
      </trkpt>
      <trkpt lat="43.52034" lon="6.14634">
        <ele>330</ele>
        <time>2017-10-14T10:27:52Z</time>
      </trkpt>
      <trkpt lat="43.52036" lon="6.14631">
        <ele>330</ele>
        <time>2017-10-14T10:30:18Z</time>
      </trkpt>
      <trkpt lat="43.52037" lon="6.14635">
        <ele>330.20001220703</ele>
        <time>2017-10-14T10:32:06Z</time>
      </trkpt>
      <trkpt lat="43.52032" lon="6.14633">
        <ele>330.39999389648</ele>
        <time>2017-10-14T10:34:16Z</time>
      </trkpt>
      <trkpt lat="43.52034" lon="6.14632">
        <ele>330.39999389648</ele>
        <time>2017-10-14T10:36:07Z</time>
      </trkpt>
      <trkpt lat="43.52035" lon="6.14631">
        <ele>330.39999389648</ele>
        <time>2017-10-14T10:38:12Z</time>
      </trkpt>
      <trkpt lat="43.52035" lon="6.14629">
        <ele>330.39999389648</ele>
        <time>2017-10-14T10:40:13Z</time>
      </trkpt>
      <trkpt lat="43.52034" lon="6.14634">
        <ele>330.79998779297</ele>
        <time>2017-10-14T10:41:38Z</time>
      </trkpt>
      <trkpt lat="43.52034" lon="6.1463">
        <ele>331</ele>
        <time>2017-10-14T10:43:15Z</time>
      </trkpt>
      <trkpt lat="43.52037" lon="6.14631">
        <ele>331.20001220703</ele>
        <time>2017-10-14T10:45:18Z</time>
      </trkpt>
      <trkpt lat="43.52034" lon="6.14633">
        <ele>331.20001220703</ele>
        <time>2017-10-14T10:47:14Z</time>
      </trkpt>
      <trkpt lat="43.52035" lon="6.14633">
        <ele>331.39999389648</ele>
        <time>2017-10-14T10:49:02Z</time>
      </trkpt>
      <trkpt lat="43.52034" lon="6.14635">
        <ele>331.60000610352</ele>
        <time>2017-10-14T10:50:44Z</time>
      </trkpt>
      <trkpt lat="43.52033" lon="6.14635">
        <ele>331.79998779297</ele>
        <time>2017-10-14T10:52:12Z</time>
      </trkpt>
      <trkpt lat="43.52033" lon="6.14632">
        <ele>332</ele>
        <time>2017-10-14T10:54:18Z</time>
      </trkpt>
      <trkpt lat="43.52034" lon="6.14634">
        <ele>332.39999389648</ele>
        <time>2017-10-14T10:56:54Z</time>
      </trkpt>
      <trkpt lat="43.52035" lon="6.14633">
        <ele>332.60000610352</ele>
        <time>2017-10-14T10:59:58Z</time>
      </trkpt>
      <trkpt lat="43.52036" lon="6.14631">
        <ele>332.60000610352</ele>
        <time>2017-10-14T11:01:49Z</time>
      </trkpt>
      <trkpt lat="43.52037" lon="6.14632">
        <ele>332.79998779297</ele>
        <time>2017-10-14T11:03:17Z</time>
      </trkpt>
      <trkpt lat="43.52035" lon="6.14635">
        <ele>332.79998779297</ele>
        <time>2017-10-14T11:04:50Z</time>
      </trkpt>
      <trkpt lat="43.52035" lon="6.14636">
        <ele>333</ele>
        <time>2017-10-14T11:06:52Z</time>
      </trkpt>
      <trkpt lat="43.52037" lon="6.14634">
        <ele>333.20001220703</ele>
        <time>2017-10-14T11:08:59Z</time>
      </trkpt>
      <trkpt lat="43.52038" lon="6.14634">
        <ele>333.20001220703</ele>
        <time>2017-10-14T11:10:15Z</time>
      </trkpt>
      <trkpt lat="43.52037" lon="6.14631">
        <ele>333.60000610352</ele>
        <time>2017-10-14T11:12:08Z</time>
      </trkpt>
      <trkpt lat="43.52036" lon="6.14633">
        <ele>333.79998779297</ele>
        <time>2017-10-14T11:13:53Z</time>
      </trkpt>
      <trkpt lat="43.52038" lon="6.14632">
        <ele>333.79998779297</ele>
        <time>2017-10-14T11:15:31Z</time>
      </trkpt>
      <trkpt lat="43.52038" lon="6.14633">
        <ele>334</ele>
        <time>2017-10-14T11:17:09Z</time>
      </trkpt>
      <trkpt lat="43.52035" lon="6.1463">
        <ele>334.79998779297</ele>
        <time>2017-10-14T11:18:14Z</time>
      </trkpt>
      <trkpt lat="43.52037" lon="6.14639">
        <ele>335</ele>
        <time>2017-10-14T11:19:09Z</time>
      </trkpt>
      <trkpt lat="43.52034" lon="6.14652">
        <ele>335.20001220703</ele>
        <time>2017-10-14T11:19:27Z</time>
      </trkpt>
      <trkpt lat="43.52022" lon="6.14668">
        <ele>333.79998779297</ele>
        <time>2017-10-14T11:19:51Z</time>
      </trkpt>
      <trkpt lat="43.52016" lon="6.14663">
        <ele>333</ele>
        <time>2017-10-14T11:20:11Z</time>
      </trkpt>
      <trkpt lat="43.52014" lon="6.14665">
        <ele>332.60000610352</ele>
        <time>2017-10-14T11:20:44Z</time>
      </trkpt>
      <trkpt lat="43.52002" lon="6.1464">
        <ele>332</ele>
        <time>2017-10-14T11:21:07Z</time>
      </trkpt>
      <trkpt lat="43.52003" lon="6.14639">
        <ele>332</ele>
        <time>2017-10-14T11:21:41Z</time>
      </trkpt>
      <trkpt lat="43.52004" lon="6.14649">
        <ele>332.39999389648</ele>
        <time>2017-10-14T11:22:26Z</time>
      </trkpt>
      <trkpt lat="43.52017" lon="6.14674">
        <ele>332.60000610352</ele>
        <time>2017-10-14T11:22:49Z</time>
      </trkpt>
      <trkpt lat="43.5203" lon="6.14683">
        <ele>333.60000610352</ele>
        <time>2017-10-14T11:23:22Z</time>
      </trkpt>
      <trkpt lat="43.5204" lon="6.14689">
        <ele>333.39999389648</ele>
        <time>2017-10-14T11:23:44Z</time>
      </trkpt>
      <trkpt lat="43.52042" lon="6.14687">
        <ele>333.39999389648</ele>
        <time>2017-10-14T11:23:46Z</time>
      </trkpt>
      <trkpt lat="43.52036" lon="6.14703">
        <ele>333.20001220703</ele>
        <time>2017-10-14T11:24:03Z</time>
      </trkpt>
      <trkpt lat="43.52027" lon="6.14702">
        <ele>333</ele>
        <time>2017-10-14T11:24:21Z</time>
      </trkpt>
      <trkpt lat="43.52025" lon="6.14699">
        <ele>333</ele>
        <time>2017-10-14T11:24:57Z</time>
      </trkpt>
      <trkpt lat="43.52023" lon="6.14697">
        <ele>332.79998779297</ele>
        <time>2017-10-14T11:25:25Z</time>
      </trkpt>
      <trkpt lat="43.52023" lon="6.14694">
        <ele>332.79998779297</ele>
        <time>2017-10-14T11:25:50Z</time>
      </trkpt>
      <trkpt lat="43.5202" lon="6.14698">
        <ele>332.79998779297</ele>
        <time>2017-10-14T11:26:36Z</time>
      </trkpt>
      <trkpt lat="43.52019" lon="6.14699">
        <ele>333</ele>
        <time>2017-10-14T11:27:33Z</time>
      </trkpt>
      <trkpt lat="43.52024" lon="6.14688">
        <ele>333.20001220703</ele>
        <time>2017-10-14T11:28:51Z</time>
      </trkpt>
      <trkpt lat="43.52023" lon="6.14668">
        <ele>333.39999389648</ele>
        <time>2017-10-14T11:29:15Z</time>
      </trkpt>
      <trkpt lat="43.52033" lon="6.14651">
        <ele>335.39999389648</ele>
        <time>2017-10-14T11:29:40Z</time>
      </trkpt>
      <trkpt lat="43.52041" lon="6.14629">
        <ele>335.20001220703</ele>
        <time>2017-10-14T11:30:03Z</time>
      </trkpt>
      <trkpt lat="43.5204" lon="6.14622">
        <ele>334.39999389648</ele>
        <time>2017-10-14T11:30:07Z</time>
      </trkpt>
      <trkpt lat="43.52048" lon="6.14606">
        <ele>332</ele>
        <time>2017-10-14T11:30:22Z</time>
      </trkpt>
      <trkpt lat="43.52065" lon="6.14599">
        <ele>331</ele>
        <time>2017-10-14T11:30:53Z</time>
      </trkpt>
      <trkpt lat="43.52065" lon="6.14587">
        <ele>329.79998779297</ele>
        <time>2017-10-14T11:31:13Z</time>
      </trkpt>
      <trkpt lat="43.52047" lon="6.14582">
        <ele>328</ele>
        <time>2017-10-14T11:31:32Z</time>
      </trkpt>
      <trkpt lat="43.52019" lon="6.1458">
        <ele>326</ele>
        <time>2017-10-14T11:31:57Z</time>
      </trkpt>
      <trkpt lat="43.52016" lon="6.1458">
        <ele>325.60000610352</ele>
        <time>2017-10-14T11:32:01Z</time>
      </trkpt>
      <trkpt lat="43.52008" lon="6.14581">
        <ele>325.20001220703</ele>
        <time>2017-10-14T11:32:07Z</time>
      </trkpt>
      <trkpt lat="43.51988" lon="6.1459">
        <ele>323</ele>
        <time>2017-10-14T11:32:25Z</time>
      </trkpt>
      <trkpt lat="43.51961" lon="6.14598">
        <ele>320</ele>
        <time>2017-10-14T11:32:51Z</time>
      </trkpt>
      <trkpt lat="43.51942" lon="6.14594">
        <ele>317</ele>
        <time>2017-10-14T11:33:10Z</time>
      </trkpt>
      <trkpt lat="43.51937" lon="6.14593">
        <ele>316.39999389648</ele>
        <time>2017-10-14T11:33:14Z</time>
      </trkpt>
      <trkpt lat="43.51924" lon="6.1459">
        <ele>314.60000610352</ele>
        <time>2017-10-14T11:33:33Z</time>
      </trkpt>
      <trkpt lat="43.51902" lon="6.14588">
        <ele>312</ele>
        <time>2017-10-14T11:33:57Z</time>
      </trkpt>
      <trkpt lat="43.51895" lon="6.14592">
        <ele>310.60000610352</ele>
        <time>2017-10-14T11:34:16Z</time>
      </trkpt>
      <trkpt lat="43.51894" lon="6.14591">
        <ele>310.60000610352</ele>
        <time>2017-10-14T11:34:27Z</time>
      </trkpt>
      <trkpt lat="43.51896" lon="6.14588">
        <ele>310.39999389648</ele>
        <time>2017-10-14T11:34:57Z</time>
      </trkpt>
      <trkpt lat="43.51895" lon="6.14598">
        <ele>310.60000610352</ele>
        <time>2017-10-14T11:35:46Z</time>
      </trkpt>
      <trkpt lat="43.51895" lon="6.14596">
        <ele>310.79998779297</ele>
        <time>2017-10-14T11:37:04Z</time>
      </trkpt>
      <trkpt lat="43.51894" lon="6.14592">
        <ele>310.79998779297</ele>
        <time>2017-10-14T11:38:19Z</time>
      </trkpt>
      <trkpt lat="43.51895" lon="6.14587">
        <ele>311.20001220703</ele>
        <time>2017-10-14T11:39:17Z</time>
      </trkpt>
      <trkpt lat="43.51897" lon="6.14596">
        <ele>311</ele>
        <time>2017-10-14T11:40:09Z</time>
      </trkpt>
      <trkpt lat="43.51891" lon="6.14588">
        <ele>310.60000610352</ele>
        <time>2017-10-14T11:40:30Z</time>
      </trkpt>
      <trkpt lat="43.51875" lon="6.14575">
        <ele>308.20001220703</ele>
        <time>2017-10-14T11:40:54Z</time>
      </trkpt>
      <trkpt lat="43.51858" lon="6.14575">
        <ele>305.20001220703</ele>
        <time>2017-10-14T11:41:13Z</time>
      </trkpt>
      <trkpt lat="43.51851" lon="6.1456">
        <ele>302.39999389648</ele>
        <time>2017-10-14T11:41:31Z</time>
      </trkpt>
      <trkpt lat="43.51853" lon="6.14538">
        <ele>301</ele>
        <time>2017-10-14T11:41:51Z</time>
      </trkpt>
      <trkpt lat="43.5186" lon="6.14514">
        <ele>298.60000610352</ele>
        <time>2017-10-14T11:42:10Z</time>
      </trkpt>
      <trkpt lat="43.51862" lon="6.14498">
        <ele>295.60000610352</ele>
        <time>2017-10-14T11:42:25Z</time>
      </trkpt>
      <trkpt lat="43.51843" lon="6.14494">
        <ele>293.60000610352</ele>
        <time>2017-10-14T11:42:49Z</time>
      </trkpt>
      <trkpt lat="43.51826" lon="6.14492">
        <ele>290.79998779297</ele>
        <time>2017-10-14T11:43:08Z</time>
      </trkpt>
      <trkpt lat="43.51811" lon="6.145">
        <ele>287.79998779297</ele>
        <time>2017-10-14T11:43:26Z</time>
      </trkpt>
      <trkpt lat="43.51795" lon="6.14519">
        <ele>284.60000610352</ele>
        <time>2017-10-14T11:43:47Z</time>
      </trkpt>
      <trkpt lat="43.51782" lon="6.14533">
        <ele>281.60000610352</ele>
        <time>2017-10-14T11:44:04Z</time>
      </trkpt>
      <trkpt lat="43.51778" lon="6.14537">
        <ele>280.60000610352</ele>
        <time>2017-10-14T11:44:09Z</time>
      </trkpt>
      <trkpt lat="43.5176" lon="6.14547">
        <ele>277.39999389648</ele>
        <time>2017-10-14T11:44:29Z</time>
      </trkpt>
      <trkpt lat="43.51746" lon="6.14556">
        <ele>275</ele>
        <time>2017-10-14T11:44:47Z</time>
      </trkpt>
      <trkpt lat="43.5174" lon="6.14562">
        <ele>272.60000610352</ele>
        <time>2017-10-14T11:45:06Z</time>
      </trkpt>
      <trkpt lat="43.5173" lon="6.14568">
        <ele>271.20001220703</ele>
        <time>2017-10-14T11:45:23Z</time>
      </trkpt>
      <trkpt lat="43.51727" lon="6.14571">
        <ele>270.39999389648</ele>
        <time>2017-10-14T11:45:27Z</time>
      </trkpt>
      <trkpt lat="43.51708" lon="6.14595">
        <ele>267.20001220703</ele>
        <time>2017-10-14T11:45:49Z</time>
      </trkpt>
      <trkpt lat="43.51697" lon="6.14614">
        <ele>264.20001220703</ele>
        <time>2017-10-14T11:46:08Z</time>
      </trkpt>
      <trkpt lat="43.51683" lon="6.14631">
        <ele>261</ele>
        <time>2017-10-14T11:46:27Z</time>
      </trkpt>
      <trkpt lat="43.51671" lon="6.14639">
        <ele>258</ele>
        <time>2017-10-14T11:46:41Z</time>
      </trkpt>
      <trkpt lat="43.5165" lon="6.14653">
        <ele>255</ele>
        <time>2017-10-14T11:47:01Z</time>
      </trkpt>
      <trkpt lat="43.51634" lon="6.14668">
        <ele>253.19999694824</ele>
        <time>2017-10-14T11:47:19Z</time>
      </trkpt>
      <trkpt lat="43.51626" lon="6.14677">
        <ele>252.60000610352</ele>
        <time>2017-10-14T11:47:34Z</time>
      </trkpt>
      <trkpt lat="43.51624" lon="6.14679">
        <ele>252.60000610352</ele>
        <time>2017-10-14T11:47:36Z</time>
      </trkpt>
      <trkpt lat="43.51613" lon="6.14697">
        <ele>251.19999694824</ele>
        <time>2017-10-14T11:47:55Z</time>
      </trkpt>
      <trkpt lat="43.51603" lon="6.14712">
        <ele>248</ele>
        <time>2017-10-14T11:48:12Z</time>
      </trkpt>
      <trkpt lat="43.51588" lon="6.14733">
        <ele>245</ele>
        <time>2017-10-14T11:48:34Z</time>
      </trkpt>
      <trkpt lat="43.51575" lon="6.14751">
        <ele>241.80000305176</ele>
        <time>2017-10-14T11:48:53Z</time>
      </trkpt>
      <trkpt lat="43.51563" lon="6.14767">
        <ele>238.60000610352</ele>
        <time>2017-10-14T11:49:13Z</time>
      </trkpt>
      <trkpt lat="43.51548" lon="6.14787">
        <ele>235.60000610352</ele>
        <time>2017-10-14T11:49:32Z</time>
      </trkpt>
      <trkpt lat="43.51531" lon="6.14809">
        <ele>232.39999389648</ele>
        <time>2017-10-14T11:49:55Z</time>
      </trkpt>
      <trkpt lat="43.51523" lon="6.14826">
        <ele>229.60000610352</ele>
        <time>2017-10-14T11:50:16Z</time>
      </trkpt>
      <trkpt lat="43.5152" lon="6.14827">
        <ele>229.39999389648</ele>
        <time>2017-10-14T11:50:44Z</time>
      </trkpt>
      <trkpt lat="43.5152" lon="6.14825">
        <ele>229.39999389648</ele>
        <time>2017-10-14T11:51:34Z</time>
      </trkpt>
      <trkpt lat="43.51522" lon="6.14827">
        <ele>229.60000610352</ele>
        <time>2017-10-14T11:52:54Z</time>
      </trkpt>
      <trkpt lat="43.51522" lon="6.14828">
        <ele>229.80000305176</ele>
        <time>2017-10-14T11:53:31Z</time>
      </trkpt>
      <trkpt lat="43.51512" lon="6.14826">
        <ele>229.39999389648</ele>
        <time>2017-10-14T11:54:33Z</time>
      </trkpt>
      <trkpt lat="43.51497" lon="6.1482">
        <ele>228.19999694824</ele>
        <time>2017-10-14T11:54:51Z</time>
      </trkpt>
      <trkpt lat="43.51479" lon="6.14813">
        <ele>227.39999389648</ele>
        <time>2017-10-14T11:55:09Z</time>
      </trkpt>
      <trkpt lat="43.51466" lon="6.14805">
        <ele>227.19999694824</ele>
        <time>2017-10-14T11:55:25Z</time>
      </trkpt>
      <trkpt lat="43.51445" lon="6.14805">
        <ele>227.19999694824</ele>
        <time>2017-10-14T11:55:48Z</time>
      </trkpt>
      <trkpt lat="43.51426" lon="6.14808">
        <ele>227.39999389648</ele>
        <time>2017-10-14T11:56:05Z</time>
      </trkpt>
      <trkpt lat="43.51411" lon="6.1481">
        <ele>227.19999694824</ele>
        <time>2017-10-14T11:56:20Z</time>
      </trkpt>
      <trkpt lat="43.51394" lon="6.14814">
        <ele>226.80000305176</ele>
        <time>2017-10-14T11:56:36Z</time>
      </trkpt>
      <trkpt lat="43.5137" lon="6.14823">
        <ele>225.80000305176</ele>
        <time>2017-10-14T11:56:58Z</time>
      </trkpt>
      <trkpt lat="43.51353" lon="6.14829">
        <ele>224.80000305176</ele>
        <time>2017-10-14T11:57:13Z</time>
      </trkpt>
      <trkpt lat="43.51335" lon="6.14834">
        <ele>224</ele>
        <time>2017-10-14T11:57:29Z</time>
      </trkpt>
      <trkpt lat="43.51318" lon="6.14838">
        <ele>223.19999694824</ele>
        <time>2017-10-14T11:57:45Z</time>
      </trkpt>
      <trkpt lat="43.51303" lon="6.14844">
        <ele>222.39999389648</ele>
        <time>2017-10-14T11:58:02Z</time>
      </trkpt>
      <trkpt lat="43.51292" lon="6.1485">
        <ele>221.60000610352</ele>
        <time>2017-10-14T11:58:27Z</time>
      </trkpt>
      <trkpt lat="43.5131" lon="6.14847">
        <ele>222.19999694824</ele>
        <time>2017-10-14T11:58:55Z</time>
      </trkpt>
      <trkpt lat="43.51323" lon="6.14844">
        <ele>223.19999694824</ele>
        <time>2017-10-14T11:59:14Z</time>
      </trkpt>
      <trkpt lat="43.51321" lon="6.1485">
        <ele>223.19999694824</ele>
        <time>2017-10-14T11:59:33Z</time>
      </trkpt>
      <trkpt lat="43.51322" lon="6.14848">
        <ele>223.39999389648</ele>
        <time>2017-10-14T12:00:22Z</time>
      </trkpt>
      <trkpt lat="43.51322" lon="6.14843">
        <ele>223.19999694824</ele>
        <time>2017-10-14T12:00:52Z</time>
      </trkpt>
      <trkpt lat="43.51321" lon="6.14841">
        <ele>223.19999694824</ele>
        <time>2017-10-14T12:01:35Z</time>
      </trkpt>
      <trkpt lat="43.51303" lon="6.14848">
        <ele>222.60000610352</ele>
        <time>2017-10-14T12:01:59Z</time>
      </trkpt>
      <trkpt lat="43.51287" lon="6.14853">
        <ele>221.80000305176</ele>
        <time>2017-10-14T12:02:16Z</time>
      </trkpt>
      <trkpt lat="43.51283" lon="6.14854">
        <ele>221.80000305176</ele>
        <time>2017-10-14T12:02:19Z</time>
      </trkpt>
      <trkpt lat="43.51269" lon="6.14853">
        <ele>221.19999694824</ele>
        <time>2017-10-14T12:02:38Z</time>
      </trkpt>
      <trkpt lat="43.51263" lon="6.14864">
        <ele>221</ele>
        <time>2017-10-14T12:02:56Z</time>
      </trkpt>
      <trkpt lat="43.51264" lon="6.14868">
        <ele>221.39999389648</ele>
        <time>2017-10-14T12:03:18Z</time>
      </trkpt>
      <trkpt lat="43.51258" lon="6.14864">
        <ele>220.80000305176</ele>
        <time>2017-10-14T12:03:47Z</time>
      </trkpt>
      <trkpt lat="43.51241" lon="6.14873">
        <ele>220</ele>
        <time>2017-10-14T12:04:08Z</time>
      </trkpt>
      <trkpt lat="43.51224" lon="6.14885">
        <ele>219.39999389648</ele>
        <time>2017-10-14T12:04:26Z</time>
      </trkpt>
      <trkpt lat="43.51211" lon="6.14901">
        <ele>219</ele>
        <time>2017-10-14T12:04:42Z</time>
      </trkpt>
      <trkpt lat="43.51198" lon="6.14917">
        <ele>218.39999389648</ele>
        <time>2017-10-14T12:05:05Z</time>
      </trkpt>
      <trkpt lat="43.51183" lon="6.14931">
        <ele>217.80000305176</ele>
        <time>2017-10-14T12:05:21Z</time>
      </trkpt>
      <trkpt lat="43.51178" lon="6.14936">
        <ele>217.39999389648</ele>
        <time>2017-10-14T12:05:28Z</time>
      </trkpt>
      <trkpt lat="43.51164" lon="6.14948">
        <ele>217.19999694824</ele>
        <time>2017-10-14T12:05:46Z</time>
      </trkpt>
      <trkpt lat="43.51149" lon="6.14961">
        <ele>216.80000305176</ele>
        <time>2017-10-14T12:06:03Z</time>
      </trkpt>
      <trkpt lat="43.51146" lon="6.14963">
        <ele>216.60000610352</ele>
        <time>2017-10-14T12:06:06Z</time>
      </trkpt>
      <trkpt lat="43.51137" lon="6.14975">
        <ele>215.80000305176</ele>
        <time>2017-10-14T12:06:26Z</time>
      </trkpt>
      <trkpt lat="43.51139" lon="6.14978">
        <ele>216</ele>
        <time>2017-10-14T12:06:50Z</time>
      </trkpt>
      <trkpt lat="43.51134" lon="6.14977">
        <ele>216.19999694824</ele>
        <time>2017-10-14T12:06:56Z</time>
      </trkpt>
      <trkpt lat="43.51117" lon="6.14987">
        <ele>215.80000305176</ele>
        <time>2017-10-14T12:07:15Z</time>
      </trkpt>
      <trkpt lat="43.51099" lon="6.15001">
        <ele>215</ele>
        <time>2017-10-14T12:07:33Z</time>
      </trkpt>
      <trkpt lat="43.51086" lon="6.15012">
        <ele>214.19999694824</ele>
        <time>2017-10-14T12:07:47Z</time>
      </trkpt>
      <trkpt lat="43.51069" lon="6.15025">
        <ele>213.39999389648</ele>
        <time>2017-10-14T12:08:06Z</time>
      </trkpt>
      <trkpt lat="43.5106" lon="6.15035">
        <ele>212.80000305176</ele>
        <time>2017-10-14T12:08:24Z</time>
      </trkpt>
      <trkpt lat="43.51049" lon="6.15048">
        <ele>212.80000305176</ele>
        <time>2017-10-14T12:09:16Z</time>
      </trkpt>
      <trkpt lat="43.51045" lon="6.15052">
        <ele>212.39999389648</ele>
        <time>2017-10-14T12:09:23Z</time>
      </trkpt>
      <trkpt lat="43.51029" lon="6.15073">
        <ele>211.39999389648</ele>
        <time>2017-10-14T12:09:44Z</time>
      </trkpt>
      <trkpt lat="43.51014" lon="6.15091">
        <ele>210.80000305176</ele>
        <time>2017-10-14T12:10:08Z</time>
      </trkpt>
      <trkpt lat="43.50998" lon="6.15109">
        <ele>209.60000610352</ele>
        <time>2017-10-14T12:10:30Z</time>
      </trkpt>
      <trkpt lat="43.50981" lon="6.1513">
        <ele>209</ele>
        <time>2017-10-14T12:10:49Z</time>
      </trkpt>
      <trkpt lat="43.50973" lon="6.15148">
        <ele>208.39999389648</ele>
        <time>2017-10-14T12:11:12Z</time>
      </trkpt>
      <trkpt lat="43.50965" lon="6.15158">
        <ele>208.19999694824</ele>
        <time>2017-10-14T12:11:39Z</time>
      </trkpt>
      <trkpt lat="43.50956" lon="6.15168">
        <ele>208</ele>
        <time>2017-10-14T12:12:13Z</time>
      </trkpt>
      <trkpt lat="43.50945" lon="6.15184">
        <ele>207.39999389648</ele>
        <time>2017-10-14T12:12:45Z</time>
      </trkpt>
      <trkpt lat="43.50933" lon="6.15197">
        <ele>206.39999389648</ele>
        <time>2017-10-14T12:13:04Z</time>
      </trkpt>
      <trkpt lat="43.50923" lon="6.15217">
        <ele>206.19999694824</ele>
        <time>2017-10-14T12:13:42Z</time>
      </trkpt>
      <trkpt lat="43.50907" lon="6.15237">
        <ele>205.19999694824</ele>
        <time>2017-10-14T12:14:04Z</time>
      </trkpt>
      <trkpt lat="43.50901" lon="6.15245">
        <ele>205</ele>
        <time>2017-10-14T12:14:12Z</time>
      </trkpt>
      <trkpt lat="43.50885" lon="6.15271">
        <ele>204.19999694824</ele>
        <time>2017-10-14T12:14:33Z</time>
      </trkpt>
      <trkpt lat="43.50872" lon="6.15288">
        <ele>203.60000610352</ele>
        <time>2017-10-14T12:14:49Z</time>
      </trkpt>
      <trkpt lat="43.50869" lon="6.15294">
        <ele>203.39999389648</ele>
        <time>2017-10-14T12:14:55Z</time>
      </trkpt>
      <trkpt lat="43.5086" lon="6.15308">
        <ele>202.19999694824</ele>
        <time>2017-10-14T12:15:13Z</time>
      </trkpt>
      <trkpt lat="43.50859" lon="6.15314">
        <ele>202.19999694824</ele>
        <time>2017-10-14T12:15:23Z</time>
      </trkpt>
      <trkpt lat="43.50868" lon="6.15331">
        <ele>202.19999694824</ele>
        <time>2017-10-14T12:15:38Z</time>
      </trkpt>
      <trkpt lat="43.50883" lon="6.15355">
        <ele>202.39999389648</ele>
        <time>2017-10-14T12:15:59Z</time>
      </trkpt>
      <trkpt lat="43.50897" lon="6.15383">
        <ele>202.39999389648</ele>
        <time>2017-10-14T12:16:20Z</time>
      </trkpt>
      <trkpt lat="43.50903" lon="6.154">
        <ele>202.39999389648</ele>
        <time>2017-10-14T12:16:33Z</time>
      </trkpt>
      <trkpt lat="43.50905" lon="6.15406">
        <ele>202.39999389648</ele>
        <time>2017-10-14T12:16:37Z</time>
      </trkpt>
      <trkpt lat="43.50916" lon="6.15432">
        <ele>202.39999389648</ele>
        <time>2017-10-14T12:16:58Z</time>
      </trkpt>
      <trkpt lat="43.50927" lon="6.15449">
        <ele>202.80000305176</ele>
        <time>2017-10-14T12:17:16Z</time>
      </trkpt>
      <trkpt lat="43.50947" lon="6.15446">
        <ele>203.39999389648</ele>
        <time>2017-10-14T12:17:40Z</time>
      </trkpt>
      <trkpt lat="43.50968" lon="6.15442">
        <ele>204.60000610352</ele>
        <time>2017-10-14T12:18:03Z</time>
      </trkpt>
      <trkpt lat="43.50969" lon="6.15441">
        <ele>204.60000610352</ele>
        <time>2017-10-14T12:18:04Z</time>
      </trkpt>
      <trkpt lat="43.50983" lon="6.15432">
        <ele>205</ele>
        <time>2017-10-14T12:18:21Z</time>
      </trkpt>
      <trkpt lat="43.51" lon="6.15418">
        <ele>205.60000610352</ele>
        <time>2017-10-14T12:18:43Z</time>
      </trkpt>
      <trkpt lat="43.51005" lon="6.15409">
        <ele>206.19999694824</ele>
        <time>2017-10-14T12:19:01Z</time>
      </trkpt>
      <trkpt lat="43.51003" lon="6.15412">
        <ele>206.60000610352</ele>
        <time>2017-10-14T12:20:14Z</time>
      </trkpt>
      <trkpt lat="43.51003" lon="6.15413">
        <ele>206.60000610352</ele>
        <time>2017-10-14T12:21:38Z</time>
      </trkpt>
      <trkpt lat="43.51005" lon="6.15414">
        <ele>206.80000305176</ele>
        <time>2017-10-14T12:22:42Z</time>
      </trkpt>
      <trkpt lat="43.51014" lon="6.15405">
        <ele>206.80000305176</ele>
        <time>2017-10-14T12:23:03Z</time>
      </trkpt>
      <trkpt lat="43.51031" lon="6.15393">
        <ele>207.60000610352</ele>
        <time>2017-10-14T12:23:28Z</time>
      </trkpt>
      <trkpt lat="43.51052" lon="6.15383">
        <ele>208.39999389648</ele>
        <time>2017-10-14T12:23:48Z</time>
      </trkpt>
      <trkpt lat="43.51064" lon="6.15379">
        <ele>209</ele>
        <time>2017-10-14T12:24:00Z</time>
      </trkpt>
      <trkpt lat="43.51082" lon="6.15374">
        <ele>209.80000305176</ele>
        <time>2017-10-14T12:24:18Z</time>
      </trkpt>
      <trkpt lat="43.51105" lon="6.1537">
        <ele>210.19999694824</ele>
        <time>2017-10-14T12:24:39Z</time>
      </trkpt>
      <trkpt lat="43.51113" lon="6.15368">
        <ele>210.60000610352</ele>
        <time>2017-10-14T12:24:47Z</time>
      </trkpt>
      <trkpt lat="43.51134" lon="6.15365">
        <ele>211</ele>
        <time>2017-10-14T12:25:05Z</time>
      </trkpt>
      <trkpt lat="43.51148" lon="6.15362">
        <ele>211</ele>
        <time>2017-10-14T12:25:18Z</time>
      </trkpt>
      <trkpt lat="43.51159" lon="6.1536">
        <ele>211.39999389648</ele>
        <time>2017-10-14T12:25:30Z</time>
      </trkpt>
      <trkpt lat="43.51179" lon="6.15356">
        <ele>212</ele>
        <time>2017-10-14T12:25:50Z</time>
      </trkpt>
      <trkpt lat="43.51203" lon="6.15355">
        <ele>212.60000610352</ele>
        <time>2017-10-14T12:26:13Z</time>
      </trkpt>
      <trkpt lat="43.51226" lon="6.15357">
        <ele>213.19999694824</ele>
        <time>2017-10-14T12:26:33Z</time>
      </trkpt>
      <trkpt lat="43.51244" lon="6.15358">
        <ele>213.60000610352</ele>
        <time>2017-10-14T12:26:49Z</time>
      </trkpt>
      <trkpt lat="43.5126" lon="6.1536">
        <ele>213.80000305176</ele>
        <time>2017-10-14T12:27:06Z</time>
      </trkpt>
      <trkpt lat="43.51274" lon="6.15362">
        <ele>214</ele>
        <time>2017-10-14T12:27:19Z</time>
      </trkpt>
      <trkpt lat="43.51296" lon="6.15365">
        <ele>214.39999389648</ele>
        <time>2017-10-14T12:27:37Z</time>
      </trkpt>
      <trkpt lat="43.51302" lon="6.15363">
        <ele>214.80000305176</ele>
        <time>2017-10-14T12:28:13Z</time>
      </trkpt>
      <trkpt lat="43.51317" lon="6.15367">
        <ele>214.80000305176</ele>
        <time>2017-10-14T12:28:37Z</time>
      </trkpt>
      <trkpt lat="43.51326" lon="6.15367">
        <ele>214.80000305176</ele>
        <time>2017-10-14T12:28:46Z</time>
      </trkpt>
      <trkpt lat="43.51345" lon="6.15369">
        <ele>215</ele>
        <time>2017-10-14T12:29:04Z</time>
      </trkpt>
      <trkpt lat="43.51354" lon="6.15371">
        <ele>214.80000305176</ele>
        <time>2017-10-14T12:29:11Z</time>
      </trkpt>
      <trkpt lat="43.51369" lon="6.15371">
        <ele>214.80000305176</ele>
        <time>2017-10-14T12:29:25Z</time>
      </trkpt>
      <trkpt lat="43.5139" lon="6.15358">
        <ele>215</ele>
        <time>2017-10-14T12:29:47Z</time>
      </trkpt>
      <trkpt lat="43.51391" lon="6.15357">
        <ele>215</ele>
        <time>2017-10-14T12:29:48Z</time>
      </trkpt>
      <trkpt lat="43.51401" lon="6.15346">
        <ele>215</ele>
        <time>2017-10-14T12:29:59Z</time>
      </trkpt>
      <trkpt lat="43.51414" lon="6.15325">
        <ele>215</ele>
        <time>2017-10-14T12:30:15Z</time>
      </trkpt>
      <trkpt lat="43.51428" lon="6.15307">
        <ele>214.39999389648</ele>
        <time>2017-10-14T12:30:33Z</time>
      </trkpt>
      <trkpt lat="43.5144" lon="6.15316">
        <ele>214</ele>
        <time>2017-10-14T12:30:49Z</time>
      </trkpt>
      <trkpt lat="43.51445" lon="6.15321">
        <ele>214</ele>
        <time>2017-10-14T12:30:54Z</time>
      </trkpt>
      <trkpt lat="43.51462" lon="6.15327">
        <ele>216.19999694824</ele>
        <time>2017-10-14T12:31:14Z</time>
      </trkpt>
      <trkpt lat="43.51479" lon="6.15326">
        <ele>218.60000610352</ele>
        <time>2017-10-14T12:31:34Z</time>
      </trkpt>
      <trkpt lat="43.51494" lon="6.15323">
        <ele>219.39999389648</ele>
        <time>2017-10-14T12:31:50Z</time>
      </trkpt>
      <trkpt lat="43.51503" lon="6.15317">
        <ele>220</ele>
        <time>2017-10-14T12:31:59Z</time>
      </trkpt>
      <trkpt lat="43.5152" lon="6.15303">
        <ele>220.60000610352</ele>
        <time>2017-10-14T12:32:16Z</time>
      </trkpt>
      <trkpt lat="43.51533" lon="6.15295">
        <ele>222</ele>
        <time>2017-10-14T12:32:31Z</time>
      </trkpt>
      <trkpt lat="43.51551" lon="6.15286">
        <ele>223</ele>
        <time>2017-10-14T12:32:49Z</time>
      </trkpt>
      <trkpt lat="43.51568" lon="6.15279">
        <ele>223.80000305176</ele>
        <time>2017-10-14T12:33:03Z</time>
      </trkpt>
      <trkpt lat="43.51585" lon="6.15272">
        <ele>225.39999389648</ele>
        <time>2017-10-14T12:33:21Z</time>
      </trkpt>
      <trkpt lat="43.51595" lon="6.15268">
        <ele>226.19999694824</ele>
        <time>2017-10-14T12:33:32Z</time>
      </trkpt>
      <trkpt lat="43.5161" lon="6.15263">
        <ele>227.60000610352</ele>
        <time>2017-10-14T12:33:47Z</time>
      </trkpt>
      <trkpt lat="43.51615" lon="6.15262">
        <ele>227.80000305176</ele>
        <time>2017-10-14T12:33:52Z</time>
      </trkpt>
      <trkpt lat="43.51633" lon="6.15262">
        <ele>228.80000305176</ele>
        <time>2017-10-14T12:34:08Z</time>
      </trkpt>
      <trkpt lat="43.51651" lon="6.15262">
        <ele>229.39999389648</ele>
        <time>2017-10-14T12:34:24Z</time>
      </trkpt>
      <trkpt lat="43.51665" lon="6.15259">
        <ele>230.19999694824</ele>
        <time>2017-10-14T12:34:39Z</time>
      </trkpt>
      <trkpt lat="43.5167" lon="6.15259">
        <ele>231</ele>
        <time>2017-10-14T12:34:43Z</time>
      </trkpt>
      <trkpt lat="43.51673" lon="6.1526">
        <ele>231.19999694824</ele>
        <time>2017-10-14T12:34:46Z</time>
      </trkpt>
      <trkpt lat="43.51689" lon="6.15266">
        <ele>233</ele>
        <time>2017-10-14T12:35:02Z</time>
      </trkpt>
      <trkpt lat="43.51695" lon="6.15269">
        <ele>233.60000610352</ele>
        <time>2017-10-14T12:35:08Z</time>
      </trkpt>
      <trkpt lat="43.51698" lon="6.15269">
        <ele>234</ele>
        <time>2017-10-14T12:35:11Z</time>
      </trkpt>
      <trkpt lat="43.51712" lon="6.15279">
        <ele>235.60000610352</ele>
        <time>2017-10-14T12:35:26Z</time>
      </trkpt>
      <trkpt lat="43.51722" lon="6.15286">
        <ele>237.39999389648</ele>
        <time>2017-10-14T12:35:39Z</time>
      </trkpt>
      <trkpt lat="43.51734" lon="6.15295">
        <ele>240</ele>
        <time>2017-10-14T12:35:57Z</time>
      </trkpt>
      <trkpt lat="43.51747" lon="6.15306">
        <ele>242.19999694824</ele>
        <time>2017-10-14T12:36:18Z</time>
      </trkpt>
      <trkpt lat="43.51761" lon="6.15315">
        <ele>244.80000305176</ele>
        <time>2017-10-14T12:36:37Z</time>
      </trkpt>
      <trkpt lat="43.51771" lon="6.15322">
        <ele>247.19999694824</ele>
        <time>2017-10-14T12:36:51Z</time>
      </trkpt>
      <trkpt lat="43.51787" lon="6.15331">
        <ele>250.39999389648</ele>
        <time>2017-10-14T12:37:12Z</time>
      </trkpt>
      <trkpt lat="43.51804" lon="6.15329">
        <ele>253.19999694824</ele>
        <time>2017-10-14T12:37:32Z</time>
      </trkpt>
      <trkpt lat="43.51817" lon="6.15324">
        <ele>255.80000305176</ele>
        <time>2017-10-14T12:37:52Z</time>
      </trkpt>
      <trkpt lat="43.51821" lon="6.15322">
        <ele>256.79998779297</ele>
        <time>2017-10-14T12:38:08Z</time>
      </trkpt>
      <trkpt lat="43.51827" lon="6.15312">
        <ele>258</ele>
        <time>2017-10-14T12:38:24Z</time>
      </trkpt>
      <trkpt lat="43.51826" lon="6.1531">
        <ele>258.20001220703</ele>
        <time>2017-10-14T12:38:26Z</time>
      </trkpt>
      <trkpt lat="43.51823" lon="6.15281">
        <ele>258.79998779297</ele>
        <time>2017-10-14T12:38:47Z</time>
      </trkpt>
      <trkpt lat="43.51823" lon="6.15276">
        <ele>259</ele>
        <time>2017-10-14T12:39:05Z</time>
      </trkpt>
      <trkpt lat="43.51824" lon="6.15279">
        <ele>259</ele>
        <time>2017-10-14T12:39:23Z</time>
      </trkpt>
      <trkpt lat="43.51822" lon="6.1529">
        <ele>259.20001220703</ele>
        <time>2017-10-14T12:39:51Z</time>
      </trkpt>
      <trkpt lat="43.51825" lon="6.15307">
        <ele>258.79998779297</ele>
        <time>2017-10-14T12:40:08Z</time>
      </trkpt>
      <trkpt lat="43.51826" lon="6.15316">
        <ele>258.60000610352</ele>
        <time>2017-10-14T12:40:26Z</time>
      </trkpt>
      <trkpt lat="43.51836" lon="6.1531">
        <ele>259</ele>
        <time>2017-10-14T12:40:46Z</time>
      </trkpt>
      <trkpt lat="43.51852" lon="6.15301">
        <ele>261.60000610352</ele>
        <time>2017-10-14T12:41:07Z</time>
      </trkpt>
      <trkpt lat="43.51855" lon="6.15297">
        <ele>262.60000610352</ele>
        <time>2017-10-14T12:41:24Z</time>
      </trkpt>
      <trkpt lat="43.51859" lon="6.15293">
        <ele>262.79998779297</ele>
        <time>2017-10-14T12:41:34Z</time>
      </trkpt>
      <trkpt lat="43.51864" lon="6.15288">
        <ele>263</ele>
        <time>2017-10-14T12:41:41Z</time>
      </trkpt>
      <trkpt lat="43.51877" lon="6.15278">
        <ele>264.39999389648</ele>
        <time>2017-10-14T12:41:57Z</time>
      </trkpt>
      <trkpt lat="43.51889" lon="6.15267">
        <ele>265.39999389648</ele>
        <time>2017-10-14T12:42:13Z</time>
      </trkpt>
      <trkpt lat="43.51896" lon="6.15259">
        <ele>265.79998779297</ele>
        <time>2017-10-14T12:42:23Z</time>
      </trkpt>
      <trkpt lat="43.51912" lon="6.15235">
        <ele>266.20001220703</ele>
        <time>2017-10-14T12:42:44Z</time>
      </trkpt>
      <trkpt lat="43.51926" lon="6.15215">
        <ele>266.20001220703</ele>
        <time>2017-10-14T12:43:03Z</time>
      </trkpt>
      <trkpt lat="43.51931" lon="6.15213">
        <ele>266.39999389648</ele>
        <time>2017-10-14T12:43:23Z</time>
      </trkpt>
      <trkpt lat="43.51939" lon="6.15217">
        <ele>266.20001220703</ele>
        <time>2017-10-14T12:43:31Z</time>
      </trkpt>
      <trkpt lat="43.51954" lon="6.15221">
        <ele>266</ele>
        <time>2017-10-14T12:43:48Z</time>
      </trkpt>
      <trkpt lat="43.51963" lon="6.15222">
        <ele>266.39999389648</ele>
        <time>2017-10-14T12:44:10Z</time>
      </trkpt>
      <trkpt lat="43.51968" lon="6.15237">
        <ele>265.79998779297</ele>
        <time>2017-10-14T12:44:24Z</time>
      </trkpt>
      <trkpt lat="43.51986" lon="6.15254">
        <ele>263.79998779297</ele>
        <time>2017-10-14T12:44:46Z</time>
      </trkpt>
      <trkpt lat="43.52002" lon="6.15257">
        <ele>262.60000610352</ele>
        <time>2017-10-14T12:45:03Z</time>
      </trkpt>
      <trkpt lat="43.5202" lon="6.15249">
        <ele>262.39999389648</ele>
        <time>2017-10-14T12:45:27Z</time>
      </trkpt>
      <trkpt lat="43.52045" lon="6.15237">
        <ele>260.39999389648</ele>
        <time>2017-10-14T12:45:52Z</time>
      </trkpt>
      <trkpt lat="43.52057" lon="6.15226">
        <ele>258.39999389648</ele>
        <time>2017-10-14T12:46:11Z</time>
      </trkpt>
      <trkpt lat="43.52066" lon="6.15218">
        <ele>257.60000610352</ele>
        <time>2017-10-14T12:46:36Z</time>
      </trkpt>
      <trkpt lat="43.52077" lon="6.15204">
        <ele>256.20001220703</ele>
        <time>2017-10-14T12:46:53Z</time>
      </trkpt>
      <trkpt lat="43.52094" lon="6.15192">
        <ele>254.60000610352</ele>
        <time>2017-10-14T12:47:12Z</time>
      </trkpt>
      <trkpt lat="43.52096" lon="6.15191">
        <ele>253.80000305176</ele>
        <time>2017-10-14T12:47:18Z</time>
      </trkpt>
      <trkpt lat="43.52104" lon="6.15188">
        <ele>253.19999694824</ele>
        <time>2017-10-14T12:47:26Z</time>
      </trkpt>
      <trkpt lat="43.52123" lon="6.15179">
        <ele>251.60000610352</ele>
        <time>2017-10-14T12:47:47Z</time>
      </trkpt>
      <trkpt lat="43.52139" lon="6.15172">
        <ele>250.19999694824</ele>
        <time>2017-10-14T12:48:03Z</time>
      </trkpt>
      <trkpt lat="43.52141" lon="6.1517">
        <ele>250</ele>
        <time>2017-10-14T12:48:05Z</time>
      </trkpt>
      <trkpt lat="43.52144" lon="6.15165">
        <ele>249.60000610352</ele>
        <time>2017-10-14T12:48:10Z</time>
      </trkpt>
      <trkpt lat="43.52153" lon="6.15154">
        <ele>248.19999694824</ele>
        <time>2017-10-14T12:48:25Z</time>
      </trkpt>
      <trkpt lat="43.52161" lon="6.15144">
        <ele>247.19999694824</ele>
        <time>2017-10-14T12:48:38Z</time>
      </trkpt>
      <trkpt lat="43.52178" lon="6.15129">
        <ele>246.19999694824</ele>
        <time>2017-10-14T12:48:56Z</time>
      </trkpt>
      <trkpt lat="43.52181" lon="6.15127">
        <ele>246.60000610352</ele>
        <time>2017-10-14T12:49:28Z</time>
      </trkpt>
      <trkpt lat="43.52188" lon="6.15116">
        <ele>246.39999389648</ele>
        <time>2017-10-14T12:50:14Z</time>
      </trkpt>
      <trkpt lat="43.52197" lon="6.15104">
        <ele>246.39999389648</ele>
        <time>2017-10-14T12:50:30Z</time>
      </trkpt>
      <trkpt lat="43.52198" lon="6.15103">
        <ele>246.39999389648</ele>
        <time>2017-10-14T12:50:53Z</time>
      </trkpt>
      <trkpt lat="43.52201" lon="6.15095">
        <ele>246.39999389648</ele>
        <time>2017-10-14T12:51:00Z</time>
      </trkpt>
      <trkpt lat="43.52216" lon="6.1507">
        <ele>246.39999389648</ele>
        <time>2017-10-14T12:51:22Z</time>
      </trkpt>
      <trkpt lat="43.52226" lon="6.15055">
        <ele>246.80000305176</ele>
        <time>2017-10-14T12:51:35Z</time>
      </trkpt>
      <trkpt lat="43.5223" lon="6.15052">
        <ele>246.80000305176</ele>
        <time>2017-10-14T12:51:39Z</time>
      </trkpt>
      <trkpt lat="43.52249" lon="6.15033">
        <ele>247.60000610352</ele>
        <time>2017-10-14T12:51:59Z</time>
      </trkpt>
      <trkpt lat="43.52263" lon="6.15018">
        <ele>248.19999694824</ele>
        <time>2017-10-14T12:52:14Z</time>
      </trkpt>
      <trkpt lat="43.52275" lon="6.15005">
        <ele>248.60000610352</ele>
        <time>2017-10-14T12:52:31Z</time>
      </trkpt>
      <trkpt lat="43.52278" lon="6.15001">
        <ele>249</ele>
        <time>2017-10-14T12:53:07Z</time>
      </trkpt>
      <trkpt lat="43.52289" lon="6.14982">
        <ele>249.39999389648</ele>
        <time>2017-10-14T12:53:24Z</time>
      </trkpt>
      <trkpt lat="43.52294" lon="6.14972">
        <ele>249.60000610352</ele>
        <time>2017-10-14T12:53:39Z</time>
      </trkpt>
      <trkpt lat="43.52299" lon="6.14964">
        <ele>249.80000305176</ele>
        <time>2017-10-14T12:53:57Z</time>
      </trkpt>
      <trkpt lat="43.52305" lon="6.14957">
        <ele>250</ele>
        <time>2017-10-14T12:54:18Z</time>
      </trkpt>
      <trkpt lat="43.52315" lon="6.14945">
        <ele>250.19999694824</ele>
        <time>2017-10-14T12:54:37Z</time>
      </trkpt>
      <trkpt lat="43.52324" lon="6.14929">
        <ele>251</ele>
        <time>2017-10-14T12:54:56Z</time>
      </trkpt>
      <trkpt lat="43.52331" lon="6.14918">
        <ele>251.39999389648</ele>
        <time>2017-10-14T12:55:14Z</time>
      </trkpt>
      <trkpt lat="43.52347" lon="6.14921">
        <ele>249.39999389648</ele>
        <time>2017-10-14T12:55:34Z</time>
      </trkpt>
      <trkpt lat="43.52361" lon="6.14929">
        <ele>247.60000610352</ele>
        <time>2017-10-14T12:55:50Z</time>
      </trkpt>
      <trkpt lat="43.52368" lon="6.14932">
        <ele>246.80000305176</ele>
        <time>2017-10-14T12:55:57Z</time>
      </trkpt>
      <trkpt lat="43.52373" lon="6.14936">
        <ele>246.19999694824</ele>
        <time>2017-10-14T12:56:03Z</time>
      </trkpt>
      <trkpt lat="43.52384" lon="6.14938">
        <ele>245.39999389648</ele>
        <time>2017-10-14T12:56:15Z</time>
      </trkpt>
      <trkpt lat="43.52401" lon="6.14937">
        <ele>244.80000305176</ele>
        <time>2017-10-14T12:56:33Z</time>
      </trkpt>
      <trkpt lat="43.52418" lon="6.14934">
        <ele>244.39999389648</ele>
        <time>2017-10-14T12:56:52Z</time>
      </trkpt>
      <trkpt lat="43.52432" lon="6.14935">
        <ele>244.39999389648</ele>
        <time>2017-10-14T12:57:07Z</time>
      </trkpt>
      <trkpt lat="43.52447" lon="6.14928">
        <ele>245</ele>
        <time>2017-10-14T12:57:24Z</time>
      </trkpt>
      <trkpt lat="43.52444" lon="6.14918">
        <ele>245.19999694824</ele>
        <time>2017-10-14T12:57:32Z</time>
      </trkpt>
      <trkpt lat="43.52446" lon="6.14897">
        <ele>247</ele>
        <time>2017-10-14T12:57:48Z</time>
      </trkpt>
      <trkpt lat="43.52446" lon="6.14884">
        <ele>249.39999389648</ele>
        <time>2017-10-14T12:58:08Z</time>
      </trkpt>
      <trkpt lat="43.52449" lon="6.14878">
        <ele>249.39999389648</ele>
        <time>2017-10-14T12:59:11Z</time>
      </trkpt>
      <trkpt lat="43.52444" lon="6.14871">
        <ele>250.39999389648</ele>
        <time>2017-10-14T12:59:30Z</time>
      </trkpt>
      <trkpt lat="43.52452" lon="6.14857">
        <ele>250.80000305176</ele>
        <time>2017-10-14T12:59:44Z</time>
      </trkpt>
      <trkpt lat="43.52458" lon="6.14845">
        <ele>251.39999389648</ele>
        <time>2017-10-14T12:59:55Z</time>
      </trkpt>
      <trkpt lat="43.5246" lon="6.14842">
        <ele>251.60000610352</ele>
        <time>2017-10-14T12:59:58Z</time>
      </trkpt>
      <trkpt lat="43.52473" lon="6.14825">
        <ele>252.80000305176</ele>
        <time>2017-10-14T13:00:17Z</time>
      </trkpt>
      <trkpt lat="43.5248" lon="6.14803">
        <ele>253.60000610352</ele>
        <time>2017-10-14T13:00:35Z</time>
      </trkpt>
      <trkpt lat="43.52482" lon="6.14794">
        <ele>254</ele>
        <time>2017-10-14T13:00:41Z</time>
      </trkpt>
      <trkpt lat="43.52484" lon="6.14785">
        <ele>254.19999694824</ele>
        <time>2017-10-14T13:00:47Z</time>
      </trkpt>
      <trkpt lat="43.52494" lon="6.14765">
        <ele>255.39999389648</ele>
        <time>2017-10-14T13:01:04Z</time>
      </trkpt>
      <trkpt lat="43.52495" lon="6.14763">
        <ele>255.60000610352</ele>
        <time>2017-10-14T13:01:06Z</time>
      </trkpt>
      <trkpt lat="43.52498" lon="6.14756">
        <ele>256</ele>
        <time>2017-10-14T13:01:11Z</time>
      </trkpt>
      <trkpt lat="43.52502" lon="6.14743">
        <ele>256.79998779297</ele>
        <time>2017-10-14T13:01:20Z</time>
      </trkpt>
      <trkpt lat="43.52506" lon="6.14735">
        <ele>257.20001220703</ele>
        <time>2017-10-14T13:01:26Z</time>
      </trkpt>
      <trkpt lat="43.52519" lon="6.14714">
        <ele>258.60000610352</ele>
        <time>2017-10-14T13:01:43Z</time>
      </trkpt>
      <trkpt lat="43.52526" lon="6.14702">
        <ele>259.39999389648</ele>
        <time>2017-10-14T13:01:56Z</time>
      </trkpt>
      <trkpt lat="43.52533" lon="6.14687">
        <ele>259.79998779297</ele>
        <time>2017-10-14T13:02:20Z</time>
      </trkpt>
      <trkpt lat="43.52539" lon="6.14679">
        <ele>260.39999389648</ele>
        <time>2017-10-14T13:02:37Z</time>
      </trkpt>
      <trkpt lat="43.52544" lon="6.14673">
        <ele>260.60000610352</ele>
        <time>2017-10-14T13:03:12Z</time>
      </trkpt>
      <trkpt lat="43.52556" lon="6.14652">
        <ele>261.60000610352</ele>
        <time>2017-10-14T13:03:36Z</time>
      </trkpt>
      <trkpt lat="43.52566" lon="6.14627">
        <ele>264.20001220703</ele>
        <time>2017-10-14T13:04:02Z</time>
      </trkpt>
      <trkpt lat="43.52563" lon="6.14601">
        <ele>266.60000610352</ele>
        <time>2017-10-14T13:04:21Z</time>
      </trkpt>
      <trkpt lat="43.5255" lon="6.14595">
        <ele>268.60000610352</ele>
        <time>2017-10-14T13:04:37Z</time>
      </trkpt>
      <trkpt lat="43.52554" lon="6.14593">
        <ele>269.79998779297</ele>
        <time>2017-10-14T13:05:03Z</time>
      </trkpt>
      <trkpt lat="43.52568" lon="6.146">
        <ele>268.60000610352</ele>
        <time>2017-10-14T13:05:22Z</time>
      </trkpt>
      <trkpt lat="43.52565" lon="6.14616">
        <ele>267.39999389648</ele>
        <time>2017-10-14T13:05:48Z</time>
      </trkpt>
      <trkpt lat="43.52566" lon="6.14626">
        <ele>265.79998779297</ele>
        <time>2017-10-14T13:06:05Z</time>
      </trkpt>
      <trkpt lat="43.52564" lon="6.14635">
        <ele>265.20001220703</ele>
        <time>2017-10-14T13:06:26Z</time>
      </trkpt>
      <trkpt lat="43.52551" lon="6.1466">
        <ele>262.60000610352</ele>
        <time>2017-10-14T13:06:49Z</time>
      </trkpt>
      <trkpt lat="43.5253" lon="6.14686">
        <ele>260.79998779297</ele>
        <time>2017-10-14T13:07:16Z</time>
      </trkpt>
      <trkpt lat="43.52527" lon="6.14695">
        <ele>260.39999389648</ele>
        <time>2017-10-14T13:07:23Z</time>
      </trkpt>
      <trkpt lat="43.52517" lon="6.14718">
        <ele>259.79998779297</ele>
        <time>2017-10-14T13:07:41Z</time>
      </trkpt>
      <trkpt lat="43.52506" lon="6.14739">
        <ele>258.79998779297</ele>
        <time>2017-10-14T13:07:59Z</time>
      </trkpt>
      <trkpt lat="43.52491" lon="6.14764">
        <ele>257.39999389648</ele>
        <time>2017-10-14T13:08:19Z</time>
      </trkpt>
      <trkpt lat="43.52484" lon="6.14785">
        <ele>256</ele>
        <time>2017-10-14T13:08:38Z</time>
      </trkpt>
      <trkpt lat="43.5248" lon="6.14804">
        <ele>255</ele>
        <time>2017-10-14T13:08:52Z</time>
      </trkpt>
      <trkpt lat="43.52471" lon="6.14827">
        <ele>253.60000610352</ele>
        <time>2017-10-14T13:09:11Z</time>
      </trkpt>
      <trkpt lat="43.52458" lon="6.14851">
        <ele>253</ele>
        <time>2017-10-14T13:09:33Z</time>
      </trkpt>
      <trkpt lat="43.52448" lon="6.14868">
        <ele>252</ele>
        <time>2017-10-14T13:09:48Z</time>
      </trkpt>
      <trkpt lat="43.52444" lon="6.1489">
        <ele>251</ele>
        <time>2017-10-14T13:10:05Z</time>
      </trkpt>
      <trkpt lat="43.52445" lon="6.14909">
        <ele>249</ele>
        <time>2017-10-14T13:10:21Z</time>
      </trkpt>
      <trkpt lat="43.52457" lon="6.14927">
        <ele>247</ele>
        <time>2017-10-14T13:10:39Z</time>
      </trkpt>
      <trkpt lat="43.52475" lon="6.14934">
        <ele>246.19999694824</ele>
        <time>2017-10-14T13:10:56Z</time>
      </trkpt>
      <trkpt lat="43.52488" lon="6.1493">
        <ele>245.80000305176</ele>
        <time>2017-10-14T13:11:12Z</time>
      </trkpt>
      <trkpt lat="43.52495" lon="6.14931">
        <ele>245.80000305176</ele>
        <time>2017-10-14T13:11:53Z</time>
      </trkpt>
      <trkpt lat="43.52506" lon="6.14931">
        <ele>244.60000610352</ele>
        <time>2017-10-14T13:12:12Z</time>
      </trkpt>
      <trkpt lat="43.52512" lon="6.14929">
        <ele>243.19999694824</ele>
        <time>2017-10-14T13:12:28Z</time>
      </trkpt>
      <trkpt lat="43.52522" lon="6.14924">
        <ele>242.60000610352</ele>
        <time>2017-10-14T13:12:52Z</time>
      </trkpt>
      <trkpt lat="43.52533" lon="6.14919">
        <ele>241</ele>
        <time>2017-10-14T13:13:10Z</time>
      </trkpt>
      <trkpt lat="43.52547" lon="6.1491">
        <ele>237.80000305176</ele>
        <time>2017-10-14T13:13:31Z</time>
      </trkpt>
      <trkpt lat="43.52563" lon="6.149">
        <ele>236.19999694824</ele>
        <time>2017-10-14T13:13:53Z</time>
      </trkpt>
      <trkpt lat="43.52582" lon="6.14899">
        <ele>235.60000610352</ele>
        <time>2017-10-14T13:14:11Z</time>
      </trkpt>
      <trkpt lat="43.52598" lon="6.14902">
        <ele>235.80000305176</ele>
        <time>2017-10-14T13:14:30Z</time>
      </trkpt>
      <trkpt lat="43.52593" lon="6.14902">
        <ele>236.19999694824</ele>
        <time>2017-10-14T13:15:01Z</time>
      </trkpt>
      <trkpt lat="43.52595" lon="6.14897">
        <ele>236.19999694824</ele>
        <time>2017-10-14T13:15:45Z</time>
      </trkpt>
      <trkpt lat="43.52597" lon="6.14902">
        <ele>236.19999694824</ele>
        <time>2017-10-14T13:16:17Z</time>
      </trkpt>
      <trkpt lat="43.52601" lon="6.14905">
        <ele>236.39999389648</ele>
        <time>2017-10-14T13:17:34Z</time>
      </trkpt>
      <trkpt lat="43.52597" lon="6.1491">
        <ele>236.39999389648</ele>
        <time>2017-10-14T13:17:42Z</time>
      </trkpt>
      <trkpt lat="43.52595" lon="6.1491">
        <ele>236.19999694824</ele>
        <time>2017-10-14T13:18:03Z</time>
      </trkpt>
      <trkpt lat="43.52609" lon="6.14917">
        <ele>236.60000610352</ele>
        <time>2017-10-14T13:18:19Z</time>
      </trkpt>
      <trkpt lat="43.52625" lon="6.14931">
        <ele>238</ele>
        <time>2017-10-14T13:18:37Z</time>
      </trkpt>
      <trkpt lat="43.5264" lon="6.14945">
        <ele>240.39999389648</ele>
        <time>2017-10-14T13:19:03Z</time>
      </trkpt>
      <trkpt lat="43.52644" lon="6.14937">
        <ele>243.39999389648</ele>
        <time>2017-10-14T13:19:31Z</time>
      </trkpt>
      <trkpt lat="43.52653" lon="6.14926">
        <ele>244.19999694824</ele>
        <time>2017-10-14T13:20:09Z</time>
      </trkpt>
      <trkpt lat="43.52656" lon="6.14935">
        <ele>244.39999389648</ele>
        <time>2017-10-14T13:20:31Z</time>
      </trkpt>
      <trkpt lat="43.52671" lon="6.14937">
        <ele>244.60000610352</ele>
        <time>2017-10-14T13:20:53Z</time>
      </trkpt>
      <trkpt lat="43.52691" lon="6.14932">
        <ele>245.19999694824</ele>
        <time>2017-10-14T13:21:15Z</time>
      </trkpt>
      <trkpt lat="43.52695" lon="6.14931">
        <ele>245.39999389648</ele>
        <time>2017-10-14T13:21:23Z</time>
      </trkpt>
      <trkpt lat="43.5271" lon="6.14926">
        <ele>245.80000305176</ele>
        <time>2017-10-14T13:21:47Z</time>
      </trkpt>
      <trkpt lat="43.52727" lon="6.14918">
        <ele>246.39999389648</ele>
        <time>2017-10-14T13:22:10Z</time>
      </trkpt>
      <trkpt lat="43.52736" lon="6.14916">
        <ele>247</ele>
        <time>2017-10-14T13:22:29Z</time>
      </trkpt>
      <trkpt lat="43.52747" lon="6.14917">
        <ele>247.19999694824</ele>
        <time>2017-10-14T13:22:42Z</time>
      </trkpt>
      <trkpt lat="43.52753" lon="6.14915">
        <ele>247.39999389648</ele>
        <time>2017-10-14T13:23:20Z</time>
      </trkpt>
      <trkpt lat="43.52756" lon="6.14914">
        <ele>247.39999389648</ele>
        <time>2017-10-14T13:23:48Z</time>
      </trkpt>
      <trkpt lat="43.5274" lon="6.1492">
        <ele>247.39999389648</ele>
        <time>2017-10-14T13:24:31Z</time>
      </trkpt>
      <trkpt lat="43.52732" lon="6.14913">
        <ele>247</ele>
        <time>2017-10-14T13:24:52Z</time>
      </trkpt>
      <trkpt lat="43.52733" lon="6.14892">
        <ele>248.19999694824</ele>
        <time>2017-10-14T13:25:09Z</time>
      </trkpt>
      <trkpt lat="43.52737" lon="6.14871">
        <ele>251.19999694824</ele>
        <time>2017-10-14T13:25:28Z</time>
      </trkpt>
      <trkpt lat="43.52743" lon="6.14852">
        <ele>253.60000610352</ele>
        <time>2017-10-14T13:25:44Z</time>
      </trkpt>
      <trkpt lat="43.52746" lon="6.14841">
        <ele>255.19999694824</ele>
        <time>2017-10-14T13:25:57Z</time>
      </trkpt>
      <trkpt lat="43.52754" lon="6.1482">
        <ele>256.79998779297</ele>
        <time>2017-10-14T13:26:18Z</time>
      </trkpt>
      <trkpt lat="43.52757" lon="6.14813">
        <ele>258.20001220703</ele>
        <time>2017-10-14T13:26:37Z</time>
      </trkpt>
      <trkpt lat="43.52762" lon="6.14796">
        <ele>258.79998779297</ele>
        <time>2017-10-14T13:27:16Z</time>
      </trkpt>
      <trkpt lat="43.52762" lon="6.14777">
        <ele>260.60000610352</ele>
        <time>2017-10-14T13:27:35Z</time>
      </trkpt>
      <trkpt lat="43.52763" lon="6.14772">
        <ele>261.60000610352</ele>
        <time>2017-10-14T13:28:04Z</time>
      </trkpt>
      <trkpt lat="43.52763" lon="6.14747">
        <ele>262.79998779297</ele>
        <time>2017-10-14T13:28:28Z</time>
      </trkpt>
      <trkpt lat="43.52768" lon="6.14717">
        <ele>265.39999389648</ele>
        <time>2017-10-14T13:28:53Z</time>
      </trkpt>
      <trkpt lat="43.52771" lon="6.14698">
        <ele>267.39999389648</ele>
        <time>2017-10-14T13:29:12Z</time>
      </trkpt>
      <trkpt lat="43.52772" lon="6.14681">
        <ele>268.79998779297</ele>
        <time>2017-10-14T13:29:29Z</time>
      </trkpt>
      <trkpt lat="43.5277" lon="6.14683">
        <ele>269.79998779297</ele>
        <time>2017-10-14T13:30:14Z</time>
      </trkpt>
      <trkpt lat="43.52766" lon="6.14683">
        <ele>269.60000610352</ele>
        <time>2017-10-14T13:31:37Z</time>
      </trkpt>
      <trkpt lat="43.52768" lon="6.14667">
        <ele>270.39999389648</ele>
        <time>2017-10-14T13:32:03Z</time>
      </trkpt>
      <trkpt lat="43.52776" lon="6.14639">
        <ele>273.39999389648</ele>
        <time>2017-10-14T13:32:33Z</time>
      </trkpt>
      <trkpt lat="43.52793" lon="6.14625">
        <ele>276.60000610352</ele>
        <time>2017-10-14T13:32:55Z</time>
      </trkpt>
      <trkpt lat="43.52811" lon="6.14617">
        <ele>279.60000610352</ele>
        <time>2017-10-14T13:33:18Z</time>
      </trkpt>
      <trkpt lat="43.52812" lon="6.14617">
        <ele>280.20001220703</ele>
        <time>2017-10-14T13:33:20Z</time>
      </trkpt>
      <trkpt lat="43.5282" lon="6.14601">
        <ele>281.20001220703</ele>
        <time>2017-10-14T13:33:48Z</time>
      </trkpt>
      <trkpt lat="43.52827" lon="6.1457">
        <ele>282.39999389648</ele>
        <time>2017-10-14T13:34:12Z</time>
      </trkpt>
      <trkpt lat="43.52828" lon="6.14566">
        <ele>282.39999389648</ele>
        <time>2017-10-14T13:34:15Z</time>
      </trkpt>
      <trkpt lat="43.52831" lon="6.14554">
        <ele>283</ele>
        <time>2017-10-14T13:34:25Z</time>
      </trkpt>
      <trkpt lat="43.52832" lon="6.14551">
        <ele>283</ele>
        <time>2017-10-14T13:34:27Z</time>
      </trkpt>
      <trkpt lat="43.52835" lon="6.14522">
        <ele>283.79998779297</ele>
        <time>2017-10-14T13:34:47Z</time>
      </trkpt>
      <trkpt lat="43.5284" lon="6.14504">
        <ele>283.79998779297</ele>
        <time>2017-10-14T13:35:02Z</time>
      </trkpt>
      <trkpt lat="43.52838" lon="6.14484">
        <ele>285</ele>
        <time>2017-10-14T13:35:18Z</time>
      </trkpt>
      <trkpt lat="43.52832" lon="6.14462">
        <ele>285.79998779297</ele>
        <time>2017-10-14T13:35:33Z</time>
      </trkpt>
      <trkpt lat="43.52834" lon="6.14443">
        <ele>285.60000610352</ele>
        <time>2017-10-14T13:35:50Z</time>
      </trkpt>
      <trkpt lat="43.52835" lon="6.14413">
        <ele>284.60000610352</ele>
        <time>2017-10-14T13:36:11Z</time>
      </trkpt>
      <trkpt lat="43.52834" lon="6.14397">
        <ele>283</ele>
        <time>2017-10-14T13:36:25Z</time>
      </trkpt>
      <trkpt lat="43.52839" lon="6.14374">
        <ele>281.60000610352</ele>
        <time>2017-10-14T13:36:42Z</time>
      </trkpt>
      <trkpt lat="43.5284" lon="6.1435">
        <ele>281.60000610352</ele>
        <time>2017-10-14T13:37:01Z</time>
      </trkpt>
      <trkpt lat="43.52852" lon="6.14327">
        <ele>282.60000610352</ele>
        <time>2017-10-14T13:37:22Z</time>
      </trkpt>
      <trkpt lat="43.52862" lon="6.14311">
        <ele>283.39999389648</ele>
        <time>2017-10-14T13:37:40Z</time>
      </trkpt>
      <trkpt lat="43.52872" lon="6.14294">
        <ele>280.39999389648</ele>
        <time>2017-10-14T13:38:03Z</time>
      </trkpt>
      <trkpt lat="43.52876" lon="6.14274">
        <ele>277.39999389648</ele>
        <time>2017-10-14T13:38:20Z</time>
      </trkpt>
      <trkpt lat="43.52877" lon="6.14248">
        <ele>275.79998779297</ele>
        <time>2017-10-14T13:38:40Z</time>
      </trkpt>
      <trkpt lat="43.52881" lon="6.14243">
        <ele>276</ele>
        <time>2017-10-14T13:39:04Z</time>
      </trkpt>
      <trkpt lat="43.52876" lon="6.14256">
        <ele>275.60000610352</ele>
        <time>2017-10-14T13:39:33Z</time>
      </trkpt>
      <trkpt lat="43.52883" lon="6.14257">
        <ele>277.20001220703</ele>
        <time>2017-10-14T13:39:55Z</time>
      </trkpt>
      <trkpt lat="43.52902" lon="6.14258">
        <ele>278.60000610352</ele>
        <time>2017-10-14T13:40:31Z</time>
      </trkpt>
      <trkpt lat="43.52917" lon="6.14266">
        <ele>280.60000610352</ele>
        <time>2017-10-14T13:40:54Z</time>
      </trkpt>
      <trkpt lat="43.52938" lon="6.14267">
        <ele>279</ele>
        <time>2017-10-14T13:41:20Z</time>
      </trkpt>
      <trkpt lat="43.52948" lon="6.14278">
        <ele>279.20001220703</ele>
        <time>2017-10-14T13:41:47Z</time>
      </trkpt>
      <trkpt lat="43.52946" lon="6.14278">
        <ele>279.39999389648</ele>
        <time>2017-10-14T13:42:33Z</time>
      </trkpt>
      <trkpt lat="43.52943" lon="6.14275">
        <ele>279.39999389648</ele>
        <time>2017-10-14T13:43:03Z</time>
      </trkpt>
      <trkpt lat="43.52947" lon="6.14279">
        <ele>279.79998779297</ele>
        <time>2017-10-14T13:43:59Z</time>
      </trkpt>
      <trkpt lat="43.52944" lon="6.1427">
        <ele>279.60000610352</ele>
        <time>2017-10-14T13:44:34Z</time>
      </trkpt>
      <trkpt lat="43.52944" lon="6.14272">
        <ele>279.60000610352</ele>
        <time>2017-10-14T13:44:35Z</time>
      </trkpt>
      <trkpt lat="43.5293" lon="6.14265">
        <ele>279.20001220703</ele>
        <time>2017-10-14T13:44:55Z</time>
      </trkpt>
      <trkpt lat="43.52914" lon="6.14257">
        <ele>281.39999389648</ele>
        <time>2017-10-14T13:45:16Z</time>
      </trkpt>
      <trkpt lat="43.52898" lon="6.14253">
        <ele>280.20001220703</ele>
        <time>2017-10-14T13:45:36Z</time>
      </trkpt>
      <trkpt lat="43.52879" lon="6.14254">
        <ele>278.20001220703</ele>
        <time>2017-10-14T13:45:58Z</time>
      </trkpt>
      <trkpt lat="43.52871" lon="6.14257">
        <ele>277.60000610352</ele>
        <time>2017-10-14T13:46:09Z</time>
      </trkpt>
      <trkpt lat="43.52881" lon="6.14241">
        <ele>276.60000610352</ele>
        <time>2017-10-14T13:46:25Z</time>
      </trkpt>
      <trkpt lat="43.52888" lon="6.14237">
        <ele>277</ele>
        <time>2017-10-14T13:46:47Z</time>
      </trkpt>
      <trkpt lat="43.52896" lon="6.14229">
        <ele>277.60000610352</ele>
        <time>2017-10-14T13:47:33Z</time>
      </trkpt>
      <trkpt lat="43.52905" lon="6.14205">
        <ele>280.60000610352</ele>
        <time>2017-10-14T13:47:54Z</time>
      </trkpt>
      <trkpt lat="43.52915" lon="6.14189">
        <ele>282.79998779297</ele>
        <time>2017-10-14T13:48:10Z</time>
      </trkpt>
      <trkpt lat="43.52926" lon="6.14174">
        <ele>284.60000610352</ele>
        <time>2017-10-14T13:48:27Z</time>
      </trkpt>
      <trkpt lat="43.52935" lon="6.14158">
        <ele>286.39999389648</ele>
        <time>2017-10-14T13:48:44Z</time>
      </trkpt>
      <trkpt lat="43.52945" lon="6.14139">
        <ele>288.20001220703</ele>
        <time>2017-10-14T13:49:04Z</time>
      </trkpt>
      <trkpt lat="43.52955" lon="6.14125">
        <ele>290.39999389648</ele>
        <time>2017-10-14T13:49:21Z</time>
      </trkpt>
      <trkpt lat="43.52965" lon="6.1411">
        <ele>293.20001220703</ele>
        <time>2017-10-14T13:49:39Z</time>
      </trkpt>
      <trkpt lat="43.52972" lon="6.14095">
        <ele>294.60000610352</ele>
        <time>2017-10-14T13:49:55Z</time>
      </trkpt>
      <trkpt lat="43.52984" lon="6.1408">
        <ele>297.20001220703</ele>
        <time>2017-10-14T13:50:15Z</time>
      </trkpt>
      <trkpt lat="43.52995" lon="6.14071">
        <ele>299.79998779297</ele>
        <time>2017-10-14T13:50:34Z</time>
      </trkpt>
      <trkpt lat="43.53009" lon="6.14055">
        <ele>302.79998779297</ele>
        <time>2017-10-14T13:50:54Z</time>
      </trkpt>
      <trkpt lat="43.5301" lon="6.14053">
        <ele>303.20001220703</ele>
        <time>2017-10-14T13:50:57Z</time>
      </trkpt>
      <trkpt lat="43.5302" lon="6.14039">
        <ele>304.79998779297</ele>
        <time>2017-10-14T13:51:13Z</time>
      </trkpt>
      <trkpt lat="43.53028" lon="6.1404">
        <ele>306.39999389648</ele>
        <time>2017-10-14T13:51:24Z</time>
      </trkpt>
      <trkpt lat="43.53038" lon="6.14056">
        <ele>308.20001220703</ele>
        <time>2017-10-14T13:51:39Z</time>
      </trkpt>
      <trkpt lat="43.53039" lon="6.14058">
        <ele>308.20001220703</ele>
        <time>2017-10-14T13:51:41Z</time>
      </trkpt>
      <trkpt lat="43.53051" lon="6.14072">
        <ele>308.60000610352</ele>
        <time>2017-10-14T13:51:55Z</time>
      </trkpt>
      <trkpt lat="43.53062" lon="6.1409">
        <ele>309.20001220703</ele>
        <time>2017-10-14T13:52:16Z</time>
      </trkpt>
      <trkpt lat="43.53076" lon="6.14105">
        <ele>310.60000610352</ele>
        <time>2017-10-14T13:52:31Z</time>
      </trkpt>
      <trkpt lat="43.53092" lon="6.14111">
        <ele>313.79998779297</ele>
        <time>2017-10-14T13:52:49Z</time>
      </trkpt>
      <trkpt lat="43.53106" lon="6.14115">
        <ele>316.79998779297</ele>
        <time>2017-10-14T13:53:07Z</time>
      </trkpt>
      <trkpt lat="43.53115" lon="6.14116">
        <ele>319.79998779297</ele>
        <time>2017-10-14T13:53:25Z</time>
      </trkpt>
      <trkpt lat="43.53129" lon="6.14127">
        <ele>321.79998779297</ele>
        <time>2017-10-14T13:53:48Z</time>
      </trkpt>
      <trkpt lat="43.53142" lon="6.1415">
        <ele>324.79998779297</ele>
        <time>2017-10-14T13:54:08Z</time>
      </trkpt>
      <trkpt lat="43.53154" lon="6.14172">
        <ele>326.39999389648</ele>
        <time>2017-10-14T13:54:26Z</time>
      </trkpt>
      <trkpt lat="43.53168" lon="6.14189">
        <ele>328.79998779297</ele>
        <time>2017-10-14T13:54:45Z</time>
      </trkpt>
      <trkpt lat="43.53188" lon="6.14205">
        <ele>331.60000610352</ele>
        <time>2017-10-14T13:55:10Z</time>
      </trkpt>
      <trkpt lat="43.53199" lon="6.1421">
        <ele>332.79998779297</ele>
        <time>2017-10-14T13:55:21Z</time>
      </trkpt>
      <trkpt lat="43.53211" lon="6.14218">
        <ele>334.60000610352</ele>
        <time>2017-10-14T13:55:38Z</time>
      </trkpt>
      <trkpt lat="43.5322" lon="6.14231">
        <ele>336</ele>
        <time>2017-10-14T13:55:51Z</time>
      </trkpt>
      <trkpt lat="43.53234" lon="6.14247">
        <ele>337.60000610352</ele>
        <time>2017-10-14T13:56:09Z</time>
      </trkpt>
      <trkpt lat="43.53244" lon="6.14257">
        <ele>338</ele>
        <time>2017-10-14T13:56:27Z</time>
      </trkpt>
      <trkpt lat="43.53243" lon="6.14253">
        <ele>338.60000610352</ele>
        <time>2017-10-14T13:56:48Z</time>
      </trkpt>
      <trkpt lat="43.53245" lon="6.14256">
        <ele>338.79998779297</ele>
        <time>2017-10-14T13:57:19Z</time>
      </trkpt>
      <trkpt lat="43.53245" lon="6.14256">
        <ele>339.20001220703</ele>
        <time>2017-10-14T13:57:47Z</time>
      </trkpt>
      <trkpt lat="43.53245" lon="6.14257">
        <ele>339</ele>
        <time>2017-10-14T13:58:35Z</time>
      </trkpt>
      <trkpt lat="43.53244" lon="6.14257">
        <ele>339</ele>
        <time>2017-10-14T13:59:12Z</time>
      </trkpt>
      <trkpt lat="43.53248" lon="6.1426">
        <ele>338.79998779297</ele>
        <time>2017-10-14T13:59:40Z</time>
      </trkpt>
      <trkpt lat="43.53252" lon="6.14267">
        <ele>338.79998779297</ele>
        <time>2017-10-14T13:59:47Z</time>
      </trkpt>
      <trkpt lat="43.53266" lon="6.14286">
        <ele>339</ele>
        <time>2017-10-14T14:00:05Z</time>
      </trkpt>
      <trkpt lat="43.53273" lon="6.14292">
        <ele>339.20001220703</ele>
        <time>2017-10-14T14:00:13Z</time>
      </trkpt>
      <trkpt lat="43.53284" lon="6.14304">
        <ele>339.20001220703</ele>
        <time>2017-10-14T14:00:27Z</time>
      </trkpt>
      <trkpt lat="43.5329" lon="6.14315">
        <ele>339.39999389648</ele>
        <time>2017-10-14T14:00:44Z</time>
      </trkpt>
      <trkpt lat="43.5329" lon="6.14319">
        <ele>339.60000610352</ele>
        <time>2017-10-14T14:01:08Z</time>
      </trkpt>
      <trkpt lat="43.53294" lon="6.14321">
        <ele>339.60000610352</ele>
        <time>2017-10-14T14:01:24Z</time>
      </trkpt>
      <trkpt lat="43.53299" lon="6.14323">
        <ele>339.60000610352</ele>
        <time>2017-10-14T14:01:29Z</time>
      </trkpt>
      <trkpt lat="43.5331" lon="6.14329">
        <ele>340</ele>
        <time>2017-10-14T14:01:46Z</time>
      </trkpt>
      <trkpt lat="43.53326" lon="6.1434">
        <ele>340.39999389648</ele>
        <time>2017-10-14T14:02:03Z</time>
      </trkpt>
      <trkpt lat="43.53337" lon="6.14353">
        <ele>340</ele>
        <time>2017-10-14T14:02:21Z</time>
      </trkpt>
      <trkpt lat="43.53341" lon="6.14371">
        <ele>338</ele>
        <time>2017-10-14T14:02:39Z</time>
      </trkpt>
      <trkpt lat="43.53338" lon="6.14379">
        <ele>337.39999389648</ele>
        <time>2017-10-14T14:02:46Z</time>
      </trkpt>
      <trkpt lat="43.53334" lon="6.14385">
        <ele>336.79998779297</ele>
        <time>2017-10-14T14:02:53Z</time>
      </trkpt>
      <trkpt lat="43.53321" lon="6.14407">
        <ele>335.79998779297</ele>
        <time>2017-10-14T14:03:14Z</time>
      </trkpt>
      <trkpt lat="43.53317" lon="6.14416">
        <ele>335.20001220703</ele>
        <time>2017-10-14T14:03:22Z</time>
      </trkpt>
      <trkpt lat="43.53316" lon="6.14422">
        <ele>334.79998779297</ele>
        <time>2017-10-14T14:03:27Z</time>
      </trkpt>
      <trkpt lat="43.53306" lon="6.14451">
        <ele>334.20001220703</ele>
        <time>2017-10-14T14:03:52Z</time>
      </trkpt>
      <trkpt lat="43.53301" lon="6.1446">
        <ele>333.20001220703</ele>
        <time>2017-10-14T14:04:10Z</time>
      </trkpt>
      <trkpt lat="43.53303" lon="6.14459">
        <ele>333.20001220703</ele>
        <time>2017-10-14T14:04:51Z</time>
      </trkpt>
      <trkpt lat="43.533" lon="6.14455">
        <ele>333.20001220703</ele>
        <time>2017-10-14T14:05:33Z</time>
      </trkpt>
      <trkpt lat="43.53299" lon="6.14452">
        <ele>333.39999389648</ele>
        <time>2017-10-14T14:05:54Z</time>
      </trkpt>
      <trkpt lat="43.53301" lon="6.14447">
        <ele>333.39999389648</ele>
        <time>2017-10-14T14:05:57Z</time>
      </trkpt>
      <trkpt lat="43.53308" lon="6.14427">
        <ele>334.20001220703</ele>
        <time>2017-10-14T14:06:16Z</time>
      </trkpt>
      <trkpt lat="43.53309" lon="6.14427">
        <ele>334.39999389648</ele>
        <time>2017-10-14T14:06:20Z</time>
      </trkpt>
      <trkpt lat="43.53311" lon="6.14422">
        <ele>334.39999389648</ele>
        <time>2017-10-14T14:06:24Z</time>
      </trkpt>
      <trkpt lat="43.53325" lon="6.14396">
        <ele>335</ele>
        <time>2017-10-14T14:06:43Z</time>
      </trkpt>
      <trkpt lat="43.53336" lon="6.14379">
        <ele>336</ele>
        <time>2017-10-14T14:06:58Z</time>
      </trkpt>
      <trkpt lat="43.53338" lon="6.1437">
        <ele>337.20001220703</ele>
        <time>2017-10-14T14:07:12Z</time>
      </trkpt>
      <trkpt lat="43.53341" lon="6.14367">
        <ele>337.39999389648</ele>
        <time>2017-10-14T14:07:16Z</time>
      </trkpt>
      <trkpt lat="43.53343" lon="6.14365">
        <ele>337.60000610352</ele>
        <time>2017-10-14T14:07:18Z</time>
      </trkpt>
      <trkpt lat="43.53345" lon="6.14363">
        <ele>337.60000610352</ele>
        <time>2017-10-14T14:07:20Z</time>
      </trkpt>
      <trkpt lat="43.53352" lon="6.14353">
        <ele>338.79998779297</ele>
        <time>2017-10-14T14:07:34Z</time>
      </trkpt>
      <trkpt lat="43.53363" lon="6.14339">
        <ele>341</ele>
        <time>2017-10-14T14:07:51Z</time>
      </trkpt>
      <trkpt lat="43.53375" lon="6.14324">
        <ele>342.79998779297</ele>
        <time>2017-10-14T14:08:08Z</time>
      </trkpt>
      <trkpt lat="43.53383" lon="6.14309">
        <ele>344.39999389648</ele>
        <time>2017-10-14T14:08:24Z</time>
      </trkpt>
      <trkpt lat="43.53387" lon="6.143">
        <ele>345.79998779297</ele>
        <time>2017-10-14T14:08:33Z</time>
      </trkpt>
      <trkpt lat="43.53398" lon="6.14298">
        <ele>348</ele>
        <time>2017-10-14T14:08:51Z</time>
      </trkpt>
      <trkpt lat="43.53399" lon="6.14295">
        <ele>350.39999389648</ele>
        <time>2017-10-14T14:09:09Z</time>
      </trkpt>
      <trkpt lat="43.53389" lon="6.14273">
        <ele>351.20001220703</ele>
        <time>2017-10-14T14:09:32Z</time>
      </trkpt>
      <trkpt lat="43.53383" lon="6.14263">
        <ele>351.79998779297</ele>
        <time>2017-10-14T14:09:48Z</time>
      </trkpt>
      <trkpt lat="43.53382" lon="6.14254">
        <ele>352.60000610352</ele>
        <time>2017-10-14T14:10:04Z</time>
      </trkpt>
      <trkpt lat="43.53391" lon="6.14248">
        <ele>353</ele>
        <time>2017-10-14T14:10:34Z</time>
      </trkpt>
      <trkpt lat="43.53392" lon="6.14245">
        <ele>353.39999389648</ele>
        <time>2017-10-14T14:11:13Z</time>
      </trkpt>
      <trkpt lat="43.53386" lon="6.14249">
        <ele>353.20001220703</ele>
        <time>2017-10-14T14:11:47Z</time>
      </trkpt>
      <trkpt lat="43.53386" lon="6.14252">
        <ele>353</ele>
        <time>2017-10-14T14:12:08Z</time>
      </trkpt>
      <trkpt lat="43.53384" lon="6.14248">
        <ele>353</ele>
        <time>2017-10-14T14:12:26Z</time>
      </trkpt>
      <trkpt lat="43.53381" lon="6.14254">
        <ele>353</ele>
        <time>2017-10-14T14:12:42Z</time>
      </trkpt>
      <trkpt lat="43.53376" lon="6.14245">
        <ele>353</ele>
        <time>2017-10-14T14:12:59Z</time>
      </trkpt>
      <trkpt lat="43.53371" lon="6.14239">
        <ele>353.20001220703</ele>
        <time>2017-10-14T14:13:06Z</time>
      </trkpt>
      <trkpt lat="43.53369" lon="6.14236">
        <ele>353.39999389648</ele>
        <time>2017-10-14T14:13:09Z</time>
      </trkpt>
      <trkpt lat="43.53369" lon="6.14233">
        <ele>353.60000610352</ele>
        <time>2017-10-14T14:13:11Z</time>
      </trkpt>
      <trkpt lat="43.53374" lon="6.14223">
        <ele>354.39999389648</ele>
        <time>2017-10-14T14:13:26Z</time>
      </trkpt>
      <trkpt lat="43.53393" lon="6.14237">
        <ele>356.60000610352</ele>
        <time>2017-10-14T14:13:52Z</time>
      </trkpt>
      <trkpt lat="43.53398" lon="6.14234">
        <ele>357.20001220703</ele>
        <time>2017-10-14T14:14:26Z</time>
      </trkpt>
      <trkpt lat="43.53391" lon="6.14234">
        <ele>357.20001220703</ele>
        <time>2017-10-14T14:15:39Z</time>
      </trkpt>
      <trkpt lat="43.53391" lon="6.14238">
        <ele>357.39999389648</ele>
        <time>2017-10-14T14:16:49Z</time>
      </trkpt>
      <trkpt lat="43.53379" lon="6.14228">
        <ele>356.60000610352</ele>
        <time>2017-10-14T14:17:22Z</time>
      </trkpt>
      <trkpt lat="43.53365" lon="6.14224">
        <ele>355.39999389648</ele>
        <time>2017-10-14T14:17:44Z</time>
      </trkpt>
      <trkpt lat="43.5336" lon="6.1422">
        <ele>355.20001220703</ele>
        <time>2017-10-14T14:17:50Z</time>
      </trkpt>
      <trkpt lat="43.53352" lon="6.14204">
        <ele>355.60000610352</ele>
        <time>2017-10-14T14:18:06Z</time>
      </trkpt>
      <trkpt lat="43.53341" lon="6.14182">
        <ele>356.60000610352</ele>
        <time>2017-10-14T14:18:25Z</time>
      </trkpt>
      <trkpt lat="43.53337" lon="6.14166">
        <ele>357.60000610352</ele>
        <time>2017-10-14T14:18:44Z</time>
      </trkpt>
      <trkpt lat="43.53339" lon="6.1416">
        <ele>358</ele>
        <time>2017-10-14T14:18:49Z</time>
      </trkpt>
      <trkpt lat="43.53341" lon="6.14155">
        <ele>358.20001220703</ele>
        <time>2017-10-14T14:18:52Z</time>
      </trkpt>
      <trkpt lat="43.53352" lon="6.14145">
        <ele>359.39999389648</ele>
        <time>2017-10-14T14:19:10Z</time>
      </trkpt>
      <trkpt lat="43.53349" lon="6.14148">
        <ele>359.60000610352</ele>
        <time>2017-10-14T14:19:25Z</time>
      </trkpt>
      <trkpt lat="43.53344" lon="6.14155">
        <ele>359.60000610352</ele>
        <time>2017-10-14T14:19:29Z</time>
      </trkpt>
      <trkpt lat="43.53343" lon="6.14158">
        <ele>359.60000610352</ele>
        <time>2017-10-14T14:19:30Z</time>
      </trkpt>
      <trkpt lat="43.53341" lon="6.14163">
        <ele>359.39999389648</ele>
        <time>2017-10-14T14:19:32Z</time>
      </trkpt>
      <trkpt lat="43.53341" lon="6.14165">
        <ele>359.39999389648</ele>
        <time>2017-10-14T14:19:33Z</time>
      </trkpt>
      <trkpt lat="43.5334" lon="6.14167">
        <ele>359.39999389648</ele>
        <time>2017-10-14T14:19:34Z</time>
      </trkpt>
      <trkpt lat="43.53337" lon="6.14181">
        <ele>358</ele>
        <time>2017-10-14T14:19:47Z</time>
      </trkpt>
      <trkpt lat="43.53333" lon="6.14176">
        <ele>357.79998779297</ele>
        <time>2017-10-14T14:19:56Z</time>
      </trkpt>
      <trkpt lat="43.53333" lon="6.14174">
        <ele>357.79998779297</ele>
        <time>2017-10-14T14:19:57Z</time>
      </trkpt>
      <trkpt lat="43.53333" lon="6.14173">
        <ele>358</ele>
        <time>2017-10-14T14:19:58Z</time>
      </trkpt>
      <trkpt lat="43.53333" lon="6.14167">
        <ele>359</ele>
        <time>2017-10-14T14:20:01Z</time>
      </trkpt>
      <trkpt lat="43.53334" lon="6.14166">
        <ele>359.20001220703</ele>
        <time>2017-10-14T14:20:02Z</time>
      </trkpt>
      <trkpt lat="43.53335" lon="6.14164">
        <ele>359.39999389648</ele>
        <time>2017-10-14T14:20:03Z</time>
      </trkpt>
      <trkpt lat="43.53347" lon="6.14146">
        <ele>362.20001220703</ele>
        <time>2017-10-14T14:20:20Z</time>
      </trkpt>
      <trkpt lat="43.53366" lon="6.14134">
        <ele>363.60000610352</ele>
        <time>2017-10-14T14:20:35Z</time>
      </trkpt>
      <trkpt lat="43.53381" lon="6.14122">
        <ele>365.20001220703</ele>
        <time>2017-10-14T14:20:49Z</time>
      </trkpt>
      <trkpt lat="43.53386" lon="6.14111">
        <ele>365.79998779297</ele>
        <time>2017-10-14T14:20:59Z</time>
      </trkpt>
      <trkpt lat="43.53387" lon="6.14109">
        <ele>366</ele>
        <time>2017-10-14T14:21:00Z</time>
      </trkpt>
      <trkpt lat="43.53387" lon="6.14108">
        <ele>366</ele>
        <time>2017-10-14T14:21:01Z</time>
      </trkpt>
      <trkpt lat="43.53388" lon="6.14106">
        <ele>366</ele>
        <time>2017-10-14T14:21:02Z</time>
      </trkpt>
      <trkpt lat="43.53388" lon="6.14105">
        <ele>366.20001220703</ele>
        <time>2017-10-14T14:21:03Z</time>
      </trkpt>
      <trkpt lat="43.53388" lon="6.14103">
        <ele>366.20001220703</ele>
        <time>2017-10-14T14:21:04Z</time>
      </trkpt>
      <trkpt lat="43.53395" lon="6.14069">
        <ele>367.39999389648</ele>
        <time>2017-10-14T14:21:23Z</time>
      </trkpt>
      <trkpt lat="43.53413" lon="6.14051">
        <ele>368.20001220703</ele>
        <time>2017-10-14T14:21:39Z</time>
      </trkpt>
      <trkpt lat="43.53434" lon="6.14036">
        <ele>368.60000610352</ele>
        <time>2017-10-14T14:21:56Z</time>
      </trkpt>
      <trkpt lat="43.53449" lon="6.14023">
        <ele>368.79998779297</ele>
        <time>2017-10-14T14:22:12Z</time>
      </trkpt>
      <trkpt lat="43.53466" lon="6.14012">
        <ele>369</ele>
        <time>2017-10-14T14:22:28Z</time>
      </trkpt>
      <trkpt lat="43.5348" lon="6.14001">
        <ele>368.60000610352</ele>
        <time>2017-10-14T14:22:43Z</time>
      </trkpt>
      <trkpt lat="43.53486" lon="6.14016">
        <ele>368.39999389648</ele>
        <time>2017-10-14T14:22:57Z</time>
      </trkpt>
      <trkpt lat="43.53488" lon="6.14016">
        <ele>368.20001220703</ele>
        <time>2017-10-14T14:23:20Z</time>
      </trkpt>
      <trkpt lat="43.53491" lon="6.14014">
        <ele>368.39999389648</ele>
        <time>2017-10-14T14:24:14Z</time>
      </trkpt>
      <trkpt lat="43.5349" lon="6.14013">
        <ele>368.60000610352</ele>
        <time>2017-10-14T14:24:25Z</time>
      </trkpt>
    </trkseg>
  </trk>
</gpx>